AF429 / F-HRBJ 7700 Squawk Report (24th of June, 2021)

Time Lat Lon Altitude Heading Speed Vertical Rate
2021-06-24 15:11:31 GMT 48.999836 2.577755 0 84 26 0
2021-06-24 15:11:24 GMT 48.999779 2.576691 0 84 27 0
2021-06-24 15:11:12 GMT 48.999653 2.574415 0 84 29 0
2021-06-24 15:11:07 GMT 48.999596 2.573312 0 84 29 0
2021-06-24 15:10:56 GMT 48.999489 2.571307 0 84 26 0
2021-06-24 15:10:46 GMT 48.999390 2.569551 0 84 25 0
2021-06-24 15:10:36 GMT 48.999302 2.567837 0 84 24 0
2021-06-24 15:10:26 GMT 48.999218 2.566294 0 84 22 0
2021-06-24 15:10:16 GMT 48.999149 2.564820 0 84 17 0
2021-06-24 15:10:06 GMT 48.999081 2.563844 0 78 14 0
2021-06-24 15:09:55 GMT 48.998814 2.562868 0 22 14 0
2021-06-24 15:09:44 GMT 48.998211 2.562706 0 354 14 0
2021-06-24 15:09:36 GMT 48.997650 2.562778 0 354 14 0
2021-06-24 15:09:24 GMT 48.996895 2.562868 0 354 16 0
2021-06-24 15:09:19 GMT 48.996483 2.562931 0 354 16 0
2021-06-24 15:09:08 GMT 48.995728 2.563019 0 354 17 0
2021-06-24 15:08:56 GMT 48.994751 2.563374 0 300 17 0
2021-06-24 15:08:39 GMT 48.994640 2.565466 0 264 26 0
2021-06-24 15:08:32 GMT 48.994705 2.566663 0 264 26 0
2021-06-24 15:08:21 GMT 48.994625 2.568632 0 284 26 0
2021-06-24 15:08:14 GMT 48.994411 2.569832 0 284 27 0
2021-06-24 15:08:04 GMT 48.994087 2.571614 0 284 28 0
2021-06-24 15:07:54 GMT 48.993748 2.573530 0 284 27 0
2021-06-24 15:07:45 GMT 48.993507 2.575132 0 275 27 0
2021-06-24 15:07:41 GMT 48.993484 2.575896 0 267 29 0
2021-06-24 15:07:35 GMT 48.993565 2.577474 0 264 43 0
2021-06-24 15:07:24 GMT 48.993752 2.581082 100 264 69 0
2021-06-24 15:07:13 GMT 48.994137 2.587786 100 266 126 64
2021-06-24 15:07:03 GMT 48.994537 2.596224 75 266 141 -128
2021-06-24 15:06:54 GMT 48.995041 2.605873 175 266 145 -832
2021-06-24 15:06:44 GMT 48.995579 2.615903 300 266 144 -768
2021-06-24 15:06:40 GMT 48.995766 2.619372 325 266 144 -832
2021-06-24 15:06:34 GMT 48.996140 2.626296 425 266 143 -832
2021-06-24 15:06:30 GMT 48.996368 2.630169 475 266 143 -896
2021-06-24 15:06:27 GMT 48.996506 2.632986 500 266 143 -704
2021-06-24 15:06:24 GMT 48.996643 2.636155 550 266 143 -832
2021-06-24 15:06:18 GMT 48.996975 2.642140 625 266 142 -768
2021-06-24 15:06:13 GMT 48.997162 2.646332 675 266 141 -896
2021-06-24 15:06:10 GMT 48.997349 2.649873 775 266 142 -832
2021-06-24 15:06:07 GMT 48.997536 2.652837 750 266 141 -704
2021-06-24 15:06:04 GMT 48.997719 2.656451 800 266 142 -832
2021-06-24 15:06:00 GMT 48.998047 2.662667 850 266 143 -896
2021-06-24 15:05:57 GMT 48.998047 2.662667 850 266 143 -896
2021-06-24 15:05:53 GMT 48.998280 2.666859 950 266 144 -768
2021-06-24 15:05:49 GMT 48.998512 2.670690 1,025 266 145 -960
2021-06-24 15:05:45 GMT 48.998745 2.675171 1,050 266 145 -960
2021-06-24 15:05:43 GMT 48.998837 2.677195 1,075 266 147 -640
2021-06-24 15:05:41 GMT 48.998978 2.679819 1,125 266 149 -768
2021-06-24 15:05:38 GMT 48.999069 2.681861 1,125 266 149 -768
2021-06-24 15:05:37 GMT 48.999119 2.683266 1,150 266 151 -704
2021-06-24 15:05:36 GMT 48.999210 2.684278 1,150 266 151 -768
2021-06-24 15:05:35 GMT 48.999298 2.685876 1,175 266 152 -832
2021-06-24 15:05:32 GMT 48.999397 2.688181 1,200 266 156 -768
2021-06-24 15:05:30 GMT 48.999722 2.694397 1,275 266 160 -896
2021-06-24 15:05:27 GMT 48.999756 2.695383 1,300 266 161 -896
2021-06-24 15:05:25 GMT 48.999817 2.696638 1,300 266 161 -896
2021-06-24 15:05:24 GMT 48.999908 2.697794 1,325 266 161 -832
2021-06-24 15:05:22 GMT 48.999985 2.699890 1,350 266 161 -832
2021-06-24 15:05:21 GMT 49.000095 2.701119 1,375 266 161 -832
2021-06-24 15:05:18 GMT 49.000214 2.703975 1,400 266 160 -832
2021-06-24 15:05:17 GMT 49.000328 2.705672 1,400 266 160 -832
2021-06-24 15:05:16 GMT 49.000397 2.706651 1,425 266 160 -768
2021-06-24 15:05:15 GMT 49.000443 2.707778 1,450 266 160 -832
2021-06-24 15:05:13 GMT 49.000580 2.710243 1,475 266 159 -768
2021-06-24 15:05:12 GMT 49.000607 2.711527 1,475 266 159 -832
2021-06-24 15:05:09 GMT 49.000809 2.714750 1,525 266 160 -832
2021-06-24 15:05:06 GMT 49.000946 2.717919 1,550 266 160 -960
2021-06-24 15:05:04 GMT 49.001083 2.720595 1,600 266 162 -960
2021-06-24 15:05:02 GMT 49.001163 2.722296 1,625 266 163 -960
2021-06-24 15:05:01 GMT 49.001259 2.723453 1,625 266 163 -960
2021-06-24 15:05:00 GMT 49.001305 2.724609 1,650 266 164 -1024
2021-06-24 15:04:58 GMT 49.001450 2.727074 1,675 266 165 -1024
2021-06-24 15:04:56 GMT 49.001633 2.730807 1,725 266 168 -1024
2021-06-24 15:04:54 GMT 49.001678 2.731934 1,750 266 168 -960
2021-06-24 15:04:53 GMT 49.001816 2.734328 1,775 266 169 -1024
2021-06-24 15:04:51 GMT 49.001862 2.735525 1,800 266 170 -1024
2021-06-24 15:04:49 GMT 49.002003 2.738270 1,825 266 170 -1024
2021-06-24 15:04:47 GMT 49.002190 2.741378 1,875 266 173 -1024
2021-06-24 15:04:45 GMT 49.002235 2.743113 1,900 266 173 -1024
2021-06-24 15:04:44 GMT 49.002331 2.744341 1,925 266 175 -960
2021-06-24 15:04:41 GMT 49.002468 2.747016 1,950 266 176 -896
2021-06-24 15:04:40 GMT 49.002640 2.750103 1,975 266 178 -1024
2021-06-24 15:04:38 GMT 49.002686 2.751371 2,000 266 179 -1024
2021-06-24 15:04:37 GMT 49.002777 2.752850 2,025 266 179 -1024
2021-06-24 15:04:35 GMT 49.002888 2.755255 2,050 266 179 -960
2021-06-24 15:04:33 GMT 49.003006 2.757920 2,075 266 180 -960
2021-06-24 15:04:32 GMT 49.003098 2.759188 2,100 266 180 -960
2021-06-24 15:04:31 GMT 49.003166 2.760315 2,125 266 180 -960
2021-06-24 15:04:29 GMT 49.003307 2.762845 2,150 266 180 -960
2021-06-24 15:04:27 GMT 49.003399 2.764652 2,175 266 180 -960
2021-06-24 15:04:26 GMT 49.003632 2.769422 2,225 266 180 -960
2021-06-24 15:04:24 GMT 49.003693 2.770808 2,250 266 179 -1024
2021-06-24 15:04:21 GMT 49.003830 2.773344 2,275 266 179 -1024
2021-06-24 15:04:19 GMT 49.003967 2.775879 2,325 266 179 -960
2021-06-24 15:04:16 GMT 49.004097 2.778457 2,350 266 178 -1024
2021-06-24 15:04:15 GMT 49.004284 2.781782 2,400 266 178 -960
2021-06-24 15:04:13 GMT 49.004330 2.783010 2,400 266 179 -960
2021-06-24 15:04:12 GMT 49.004375 2.784239 2,425 266 179 -960
2021-06-24 15:04:11 GMT 49.004562 2.787275 2,450 266 179 -960
2021-06-24 15:04:09 GMT 49.004562 2.787781 2,475 266 179 -1024
2021-06-24 15:04:07 GMT 49.004791 2.792218 2,525 266 179 -1024
2021-06-24 15:04:04 GMT 49.004890 2.794575 2,550 266 180 -1024
2021-06-24 15:04:03 GMT 49.004974 2.795950 2,575 266 180 -1024
2021-06-24 15:04:00 GMT 49.005123 2.798623 2,600 266 180 -1024
2021-06-24 15:03:58 GMT 49.005295 2.801795 2,700 266 181 -1024
2021-06-24 15:03:55 GMT 49.005589 2.807224 2,725 266 180 -960
2021-06-24 15:03:53 GMT 49.005615 2.808415 2,725 266 180 -960
2021-06-24 15:03:51 GMT 49.005775 2.811344 2,775 266 180 -896
2021-06-24 15:03:50 GMT 49.005798 2.811937 2,775 266 181 -896
2021-06-24 15:03:48 GMT 49.005959 2.815102 2,825 266 180 -960
2021-06-24 15:03:47 GMT 49.006004 2.815897 2,825 266 180 -960
2021-06-24 15:03:44 GMT 49.006210 2.819824 2,875 266 181 -960
2021-06-24 15:03:42 GMT 49.006348 2.822360 2,900 266 181 -960
2021-06-24 15:03:41 GMT 49.006424 2.823775 2,925 266 181 -960
2021-06-24 15:03:38 GMT 49.006611 2.827823 2,975 266 182 -1024
2021-06-24 15:03:35 GMT 49.006798 2.831437 3,025 266 182 -1088
2021-06-24 15:03:34 GMT 49.006897 2.834121 3,050 266 183 -1088
2021-06-24 15:03:31 GMT 49.007030 2.836569 3,075 266 183 -1088
2021-06-24 15:03:30 GMT 49.007172 2.839543 3,125 266 183 -1152
2021-06-24 15:03:28 GMT 49.007217 2.840183 3,125 266 183 -1152
2021-06-24 15:03:26 GMT 49.007355 2.843417 3,175 266 184 -1152
2021-06-24 15:03:24 GMT 49.007446 2.844684 3,200 266 184 -1152
2021-06-24 15:03:23 GMT 49.007496 2.845893 3,225 266 184 -1216
2021-06-24 15:03:21 GMT 49.007637 2.848422 3,250 266 184 -1216
2021-06-24 15:03:20 GMT 49.007675 2.849614 3,275 266 184 -1280
2021-06-24 15:03:19 GMT 49.007812 2.852220 3,325 266 184 -1280
2021-06-24 15:03:17 GMT 49.007858 2.853487 3,350 266 184 -1280
2021-06-24 15:03:16 GMT 49.007950 2.854755 3,350 266 184 -1344
2021-06-24 15:03:13 GMT 49.008133 2.858910 3,425 266 184 -1280
2021-06-24 15:03:11 GMT 49.008270 2.861516 3,450 266 184 -1280
2021-06-24 15:03:10 GMT 49.008335 2.862950 3,500 266 183 -1280
2021-06-24 15:03:07 GMT 49.008472 2.866275 3,550 267 183 -1216
2021-06-24 15:03:06 GMT 49.008636 2.870812 3,625 267 183 -1152
2021-06-24 15:03:04 GMT 49.008636 2.870812 3,625 267 183 -1088
2021-06-24 15:03:03 GMT 49.008755 2.873214 3,650 267 183 -1024
2021-06-24 15:03:01 GMT 49.008774 2.874404 3,675 267 183 -960
2021-06-24 15:02:58 GMT 49.008938 2.877840 3,700 267 183 -768
2021-06-24 15:02:56 GMT 49.009033 2.880731 3,725 267 184 -640
2021-06-24 15:02:55 GMT 49.009079 2.881960 3,725 267 184 -576
2021-06-24 15:02:54 GMT 49.009140 2.883136 3,750 267 184 -512
2021-06-24 15:02:52 GMT 49.009277 2.886235 3,750 266 185 -448
2021-06-24 15:02:50 GMT 49.009415 2.888841 3,775 266 185 -256
2021-06-24 15:02:49 GMT 49.009460 2.890179 3,775 266 186 -192
2021-06-24 15:02:47 GMT 49.009636 2.892657 3,775 265 186 -128
2021-06-24 15:02:45 GMT 49.009918 2.896729 3,775 264 190 -192
2021-06-24 15:02:43 GMT 49.010010 2.898067 3,775 264 190 -192
2021-06-24 15:02:41 GMT 49.010330 2.902081 3,800 263 192 -192
2021-06-24 15:02:39 GMT 49.010429 2.903282 3,800 263 193 -192
2021-06-24 15:02:38 GMT 49.010475 2.904077 3,800 264 193 -192
2021-06-24 15:02:37 GMT 49.010742 2.907433 3,800 264 195 -192
2021-06-24 15:02:35 GMT 49.010849 2.908703 3,800 264 196 -128
2021-06-24 15:02:32 GMT 49.011127 2.913979 3,800 269 201 128
2021-06-24 15:02:29 GMT 49.011246 2.916870 3,800 269 201 128
2021-06-24 15:02:26 GMT 49.011292 2.920321 3,800 271 203 64
2021-06-24 15:02:25 GMT 49.011292 2.921729 3,800 274 204 64
2021-06-24 15:02:24 GMT 49.011173 2.923881 3,800 278 204 64
2021-06-24 15:02:23 GMT 49.011063 2.925462 3,800 278 204 64
2021-06-24 15:02:22 GMT 49.010971 2.926870 3,775 280 205 64
2021-06-24 15:02:20 GMT 49.010605 2.929758 3,775 288 205 64
2021-06-24 15:02:19 GMT 49.010384 2.930964 3,775 288 205 64
2021-06-24 15:02:16 GMT 49.009357 2.935084 3,775 297 207 -64
2021-06-24 15:02:15 GMT 49.008846 2.936602 3,775 300 206 -64
2021-06-24 15:02:14 GMT 49.008408 2.937716 3,775 303 207 0
2021-06-24 15:02:12 GMT 49.006760 2.941308 3,775 311 209 64
2021-06-24 15:02:10 GMT 49.006119 2.942434 3,775 314 209 64
2021-06-24 15:02:08 GMT 49.004791 2.944547 3,775 324 212 0
2021-06-24 15:02:07 GMT 49.004059 2.945533 3,775 324 212 0
2021-06-24 15:02:05 GMT 49.002136 2.947716 3,775 324 212 0
2021-06-24 15:02:04 GMT 49.001724 2.948094 3,775 332 216 0
2021-06-24 15:02:03 GMT 49.000561 2.949179 3,775 335 216 64
2021-06-24 15:02:01 GMT 48.998745 2.950552 3,775 339 219 64
2021-06-24 15:02:00 GMT 48.994812 2.952646 3,775 346 222 0
2021-06-24 15:01:57 GMT 48.994812 2.952646 3,775 348 223 0
2021-06-24 15:01:54 GMT 48.992157 2.953491 3,775 353 225 64
2021-06-24 15:01:51 GMT 48.988632 2.953984 3,775 0 226 64
2021-06-24 15:01:50 GMT 48.986526 2.953984 3,775 5 226 -64
2021-06-24 15:01:48 GMT 48.985931 2.953843 3,775 5 226 -64
2021-06-24 15:01:45 GMT 48.983185 2.953350 3,775 11 227 0
2021-06-24 15:01:44 GMT 48.982265 2.953082 3,775 13 228 0
2021-06-24 15:01:43 GMT 48.979523 2.952012 3,775 17 228 -64
2021-06-24 15:01:41 GMT 48.978516 2.951519 3,775 19 228 0
2021-06-24 15:01:40 GMT 48.977509 2.950956 3,775 21 229 0
2021-06-24 15:01:37 GMT 48.974724 2.949034 3,775 28 229 0
2021-06-24 15:01:36 GMT 48.972748 2.947364 3,775 31 230 -64
2021-06-24 15:01:34 GMT 48.971745 2.946432 3,775 33 230 -64
2021-06-24 15:01:33 GMT 48.970093 2.944618 3,775 36 231 -64
2021-06-24 15:01:31 GMT 48.969322 2.943758 3,775 39 232 -64
2021-06-24 15:01:29 GMT 48.966717 2.940433 3,775 42 233 -64
2021-06-24 15:01:27 GMT 48.965973 2.939406 3,775 42 233 -64
2021-06-24 15:01:26 GMT 48.965275 2.938409 3,775 42 233 -64
2021-06-24 15:01:23 GMT 48.962494 2.934476 3,775 43 234 -64
2021-06-24 15:01:20 GMT 48.960526 2.931687 3,775 43 234 -64
2021-06-24 15:01:18 GMT 48.958694 2.929054 3,775 43 236 -64
2021-06-24 15:01:15 GMT 48.956131 2.925392 3,775 43 237 0
2021-06-24 15:01:13 GMT 48.954987 2.923664 3,775 44 238 -64
2021-06-24 15:01:11 GMT 48.952888 2.920629 3,775 44 241 -128
2021-06-24 15:01:10 GMT 48.951355 2.918243 3,775 45 242 0
2021-06-24 15:01:07 GMT 48.948235 2.913256 3,775 47 246 64
2021-06-24 15:01:04 GMT 48.948235 2.913256 3,775 47 246 64
2021-06-24 15:01:03 GMT 48.946697 2.910654 3,775 48 247 64
2021-06-24 15:01:02 GMT 48.946232 2.909931 3,775 49 249 64
2021-06-24 15:01:01 GMT 48.945602 2.908701 3,775 52 250 64
2021-06-24 15:00:59 GMT 48.944046 2.905812 3,775 54 254 64
2021-06-24 15:00:57 GMT 48.943039 2.903630 3,775 56 254 64
2021-06-24 15:00:56 GMT 48.942089 2.901403 3,775 60 257 0
2021-06-24 15:00:55 GMT 48.941162 2.898982 3,775 61 259 0
2021-06-24 15:00:54 GMT 48.940647 2.897572 3,775 63 261 -64
2021-06-24 15:00:51 GMT 48.939297 2.893235 3,775 67 263 -64
2021-06-24 15:00:50 GMT 48.938972 2.891862 3,775 70 266 -128
2021-06-24 15:00:47 GMT 48.937592 2.886024 3,775 75 271 -192
2021-06-24 15:00:44 GMT 48.936642 2.880731 3,800 77 272 -320
2021-06-24 15:00:42 GMT 48.936081 2.876798 3,800 79 272 -384
2021-06-24 15:00:41 GMT 48.935852 2.874967 3,825 79 273 -448
2021-06-24 15:00:39 GMT 48.935303 2.870389 3,825 79 273 -576
2021-06-24 15:00:38 GMT 48.935165 2.869263 3,825 79 274 -640
2021-06-24 15:00:36 GMT 48.934433 2.863206 3,875 79 274 -1024
2021-06-24 15:00:33 GMT 48.933929 2.859051 3,900 79 274 -1088
2021-06-24 15:00:31 GMT 48.933472 2.855248 3,950 79 274 -1280
2021-06-24 15:00:30 GMT 48.933384 2.854277 3,950 79 274 -1280
2021-06-24 15:00:29 GMT 48.933105 2.852036 3,975 79 274 -1408
2021-06-24 15:00:26 GMT 48.931686 2.840529 4,150 79 272 -1792
2021-06-24 15:00:23 GMT 48.931686 2.840529 4,150 79 272 -1792
2021-06-24 15:00:20 GMT 48.931046 2.835247 4,225 79 271 -1920
2021-06-24 15:00:19 GMT 48.930725 2.832642 4,275 79 271 -1984
2021-06-24 15:00:17 GMT 48.930267 2.828909 4,325 79 271 -1984
2021-06-24 15:00:15 GMT 48.929764 2.825106 4,400 78 272 -2048
2021-06-24 15:00:14 GMT 48.929337 2.821607 4,450 78 272 -2176
2021-06-24 15:00:12 GMT 48.929077 2.819543 4,500 78 272 -2176
2021-06-24 15:00:10 GMT 48.928574 2.815740 4,575 78 271 -2304
2021-06-24 15:00:09 GMT 48.928345 2.813909 4,600 78 271 -2304
2021-06-24 15:00:07 GMT 48.927891 2.810332 4,675 78 271 -2368
2021-06-24 15:00:06 GMT 48.927704 2.808886 4,700 78 271 -2368
2021-06-24 15:00:03 GMT 48.926926 2.803063 4,825 78 271 -2304
2021-06-24 15:00:02 GMT 48.926697 2.801232 4,875 78 271 -2240
2021-06-24 15:00:01 GMT 48.926449 2.799128 4,900 78 271 -2240
2021-06-24 14:59:59 GMT 48.925964 2.795598 4,950 78 271 -2304
2021-06-24 14:59:58 GMT 48.925735 2.793767 5,000 78 271 -2176
2021-06-24 14:59:57 GMT 48.925472 2.791684 5,050 78 271 -2240
2021-06-24 14:59:55 GMT 48.925003 2.788133 5,125 78 272 -2176
2021-06-24 14:59:54 GMT 48.924728 2.786231 5,150 78 272 -2240
2021-06-24 14:59:53 GMT 48.923981 2.780481 5,250 78 272 -2304
2021-06-24 14:59:51 GMT 48.923981 2.780481 5,275 78 272 -2240
2021-06-24 14:59:50 GMT 48.923470 2.776722 5,350 78 273 -2240
2021-06-24 14:59:48 GMT 48.923237 2.774843 5,375 78 273 -2304
2021-06-24 14:59:47 GMT 48.923035 2.773132 5,400 78 273 -2368
2021-06-24 14:59:45 GMT 48.922493 2.769205 5,500 78 272 -2560
2021-06-24 14:59:43 GMT 48.921978 2.765085 5,575 78 272 -2560
2021-06-24 14:59:42 GMT 48.921795 2.763929 5,625 78 272 -2560
2021-06-24 14:59:41 GMT 48.921249 2.759611 5,700 78 272 -2432
2021-06-24 14:59:39 GMT 48.920975 2.757780 5,750 78 273 -2304
2021-06-24 14:59:38 GMT 48.920723 2.755689 5,775 78 273 -2304
2021-06-24 14:59:37 GMT 48.920212 2.751931 5,850 78 273 -2240
2021-06-24 14:59:35 GMT 48.920013 2.750244 5,900 78 274 -2176
2021-06-24 14:59:34 GMT 48.919186 2.744414 5,975 78 275 -1920
2021-06-24 14:59:32 GMT 48.919186 2.744414 6,000 78 275 -1920
2021-06-24 14:59:30 GMT 48.918732 2.740807 6,050 78 276 -1728
2021-06-24 14:59:28 GMT 48.918442 2.738704 6,075 78 277 -1664
2021-06-24 14:59:26 GMT 48.917976 2.735234 6,125 78 278 -1600
2021-06-24 14:59:24 GMT 48.917465 2.731404 6,200 78 279 -1600
2021-06-24 14:59:22 GMT 48.916672 2.725694 6,325 78 280 -1600
2021-06-24 14:59:19 GMT 48.916019 2.720995 6,325 78 281 -1408
2021-06-24 14:59:18 GMT 48.915787 2.719116 6,350 78 281 -1408
2021-06-24 14:59:16 GMT 48.915417 2.716370 6,375 78 283 -1344
2021-06-24 14:59:15 GMT 48.915115 2.714257 6,400 78 283 -1280
2021-06-24 14:59:13 GMT 48.914623 2.710515 6,450 78 284 -1216
2021-06-24 14:59:12 GMT 48.914246 2.707566 6,475 78 285 -1088
2021-06-24 14:59:11 GMT 48.913925 2.705456 6,500 78 286 -1088
2021-06-24 14:59:09 GMT 48.913239 2.700101 6,550 78 289 -896
2021-06-24 14:59:06 GMT 48.912437 2.694325 6,575 78 292 -704
2021-06-24 14:59:04 GMT 48.912155 2.692301 6,600 78 293 -704
2021-06-24 14:59:03 GMT 48.911461 2.687097 6,625 78 294 -832
2021-06-24 14:59:00 GMT 48.910946 2.683411 6,650 78 295 -832
2021-06-24 14:58:58 GMT 48.910400 2.679608 6,675 78 296 -896
2021-06-24 14:58:57 GMT 48.909622 2.673903 6,700 78 296 -896
2021-06-24 14:58:55 GMT 48.909622 2.673903 6,700 78 297 -832
2021-06-24 14:58:54 GMT 48.909317 2.671629 6,725 77 297 -832
2021-06-24 14:58:52 GMT 48.908798 2.667776 6,750 77 297 -832
2021-06-24 14:58:51 GMT 48.908478 2.665486 6,750 77 298 -896
2021-06-24 14:58:50 GMT 48.908199 2.663462 6,775 77 298 -896
2021-06-24 14:58:48 GMT 48.907597 2.659342 6,800 77 299 -832
2021-06-24 14:58:46 GMT 48.907013 2.655452 6,825 77 300 -832
2021-06-24 14:58:45 GMT 48.906570 2.652331 6,850 77 301 -832
2021-06-24 14:58:44 GMT 48.906418 2.651297 6,850 77 302 -832
2021-06-24 14:58:42 GMT 48.905685 2.646115 6,875 77 302 -832
2021-06-24 14:58:41 GMT 48.905502 2.645099 6,900 77 303 -768
2021-06-24 14:58:39 GMT 48.904770 2.640099 6,925 77 304 -704
2021-06-24 14:58:38 GMT 48.904587 2.638902 6,925 77 304 -704
2021-06-24 14:58:37 GMT 48.903946 2.634676 6,950 76 306 -576
2021-06-24 14:58:34 GMT 48.903267 2.630286 6,975 76 307 -448
2021-06-24 14:58:31 GMT 48.901794 2.621296 6,975 75 310 -192
2021-06-24 14:58:28 GMT 48.901337 2.618760 6,975 74 311 -128
2021-06-24 14:58:26 GMT 48.899170 2.607591 6,975 72 315 -64
2021-06-24 14:58:23 GMT 48.898842 2.605856 7,000 70 317 -64
2021-06-24 14:58:21 GMT 48.897903 2.601858 7,000 70 317 -64
2021-06-24 14:58:19 GMT 48.897079 2.598548 7,000 65 320 64
2021-06-24 14:58:16 GMT 48.895157 2.591506 7,000 65 321 0
2021-06-24 14:58:13 GMT 48.893349 2.585618 6,975 64 323 -64
2021-06-24 14:58:12 GMT 48.892593 2.583336 6,975 63 326 -128
2021-06-24 14:58:11 GMT 48.890930 2.578245 6,975 63 328 -192
2021-06-24 14:58:08 GMT 48.890369 2.576583 6,975 63 328 -192
2021-06-24 14:58:06 GMT 48.888565 2.571012 7,000 63 331 -384
2021-06-24 14:58:03 GMT 48.886642 2.565167 7,075 63 336 -960
2021-06-24 14:57:58 GMT 48.882935 2.553828 7,075 63 336 -960
2021-06-24 14:57:55 GMT 48.881294 2.548973 7,125 63 335 -1152
2021-06-24 14:57:54 GMT 48.880692 2.547067 7,200 63 336 -1856
2021-06-24 14:57:52 GMT 48.878918 2.541817 7,175 63 336 -1472
2021-06-24 14:57:50 GMT 48.877625 2.537842 7,275 63 336 -1856
2021-06-24 14:57:47 GMT 48.875931 2.532771 7,400 63 336 -2112
2021-06-24 14:57:42 GMT 48.871719 2.520095 7,500 63 336 -2112
2021-06-24 14:57:39 GMT 48.869797 2.514179 7,600 63 336 -1984
2021-06-24 14:57:36 GMT 48.867828 2.508334 7,775 63 337 -1792
2021-06-24 14:57:33 GMT 48.865585 2.501573 7,775 63 337 -1600
2021-06-24 14:57:27 GMT 48.861275 2.488692 7,925 63 337 -1280
2021-06-24 14:57:22 GMT 48.858398 2.480023 8,025 63 337 -1152
2021-06-24 14:57:19 GMT 48.855225 2.470551 8,100 62 336 -1472
2021-06-24 14:57:16 GMT 48.853546 2.465491 8,125 62 336 -1472
2021-06-24 14:57:13 GMT 48.850849 2.457468 8,225 62 336 -1728
2021-06-24 14:57:08 GMT 48.847729 2.448289 8,375 63 336 -1856
2021-06-24 14:57:05 GMT 48.845634 2.441928 8,450 63 336 -1856
2021-06-24 14:57:02 GMT 48.843704 2.436289 8,575 63 337 -1728
2021-06-24 14:56:58 GMT 48.841259 2.428918 8,750 63 338 -1600
2021-06-24 14:56:55 GMT 48.836929 2.415763 8,750 63 338 -1600
2021-06-24 14:56:52 GMT 48.836929 2.415763 8,800 63 338 -1600
2021-06-24 14:56:49 GMT 48.834732 2.409245 8,875 63 338 -1664
2021-06-24 14:56:46 GMT 48.832832 2.403476 9,800 63 339 -1792
2021-06-24 14:56:43 GMT 48.830521 2.396428 9,225 63 338 -2816
2021-06-24 14:56:40 GMT 48.828503 2.390321 9,350 63 336 -3072
2021-06-24 14:56:37 GMT 48.825623 2.381639 9,350 63 336 -3072
2021-06-24 14:56:33 GMT 48.823517 2.375300 9,575 63 334 -3328
2021-06-24 14:56:30 GMT 48.821274 2.368610 9,750 63 333 -3456
2021-06-24 14:56:27 GMT 48.819565 2.363362 9,950 63 331 -3520
2021-06-24 14:56:24 GMT 48.817188 2.356278 10,075 63 331 -3520
2021-06-24 14:56:21 GMT 48.815186 2.350300 10,250 63 330 -3392
2021-06-24 14:56:18 GMT 48.812988 2.343680 10,400 63 330 -3392
2021-06-24 14:56:15 GMT 48.811066 2.337834 10,725 63 330 -3136
2021-06-24 14:56:11 GMT 48.808670 2.330619 10,800 63 330 -2880
2021-06-24 14:56:08 GMT 48.806763 2.324837 10,875 63 331 -2880
2021-06-24 14:56:05 GMT 48.804108 2.316777 11,000 63 331 -2880
2021-06-24 14:56:02 GMT 48.801773 2.309735 11,350 63 330 -2944
2021-06-24 14:55:57 GMT 48.799084 2.301708 11,350 63 330 -2880
2021-06-24 14:55:54 GMT 48.796707 2.294697 11,500 62 331 -2880
2021-06-24 14:55:51 GMT 48.794750 2.288915 11,625 62 331 -2880
2021-06-24 14:55:47 GMT 48.792160 2.281283 11,925 63 332 -2880
2021-06-24 14:55:43 GMT 48.786301 2.263888 12,075 63 332 -2944
2021-06-24 14:55:40 GMT 48.786301 2.263888 12,200 63 332 -2880
2021-06-24 14:55:37 GMT 48.785065 2.260155 12,350 63 333 -2880
2021-06-24 14:55:34 GMT 48.782867 2.253465 12,500 63 334 -2816
2021-06-24 14:55:31 GMT 48.780762 2.247197 12,550 63 335 -2816
2021-06-24 14:55:28 GMT 48.778107 2.239309 12,725 62 335 -2688
2021-06-24 14:55:24 GMT 48.775681 2.232126 12,925 62 338 -2432
2021-06-24 14:55:21 GMT 48.773617 2.226032 13,100 62 342 -1984
2021-06-24 14:55:18 GMT 48.770733 2.217576 13,125 62 342 -1984
2021-06-24 14:55:15 GMT 48.768631 2.211421 13,225 62 343 -2176
2021-06-24 14:55:12 GMT 48.767349 2.207548 13,325 62 343 -2240
2021-06-24 14:55:09 GMT 48.764355 2.198783 13,475 62 343 -2496
2021-06-24 14:55:06 GMT 48.762493 2.193218 13,550 63 339 -3136
2021-06-24 14:55:03 GMT 48.760025 2.185990 13,675 63 339 -3136
2021-06-24 14:55:00 GMT 48.758835 2.182406 13,775 62 338 -3200
2021-06-24 14:54:57 GMT 48.756271 2.174800 14,050 63 336 -3456
2021-06-24 14:54:54 GMT 48.752197 2.162616 14,225 62 336 -3328
2021-06-24 14:54:51 GMT 48.752197 2.162616 14,325 62 336 -3264
2021-06-24 14:54:48 GMT 48.749737 2.155272 14,550 63 337 -2816
2021-06-24 14:54:45 GMT 48.747734 2.149345 14,550 63 337 -2816
2021-06-24 14:54:42 GMT 48.745594 2.143057 14,800 62 341 -2176
2021-06-24 14:54:39 GMT 48.743546 2.136911 14,925 63 344 -1536
2021-06-24 14:54:36 GMT 48.739120 2.123831 14,975 62 347 -832
2021-06-24 14:54:33 GMT 48.739120 2.123831 14,975 62 347 -832
2021-06-24 14:54:30 GMT 48.737137 2.117967 15,000 62 351 -320
2021-06-24 14:54:27 GMT 48.734802 2.110924 15,000 62 358 -64
2021-06-24 14:54:24 GMT 48.732376 2.103811 15,000 63 361 0
2021-06-24 14:54:21 GMT 48.730370 2.097738 15,000 63 361 0
2021-06-24 14:54:20 GMT 48.729355 2.094867 15,000 63 364 64
2021-06-24 14:54:17 GMT 48.726555 2.086463 15,000 63 368 128
2021-06-24 14:54:13 GMT 48.723999 2.078881 15,000 62 371 128
2021-06-24 14:54:10 GMT 48.721802 2.072402 14,975 62 379 192
2021-06-24 14:54:06 GMT 48.718594 2.062828 14,975 62 379 192
2021-06-24 14:54:03 GMT 48.715942 2.055007 14,975 62 382 192
2021-06-24 14:54:00 GMT 48.713654 2.048316 14,975 62 388 128
2021-06-24 14:53:57 GMT 48.710724 2.039584 14,975 62 406 -64
2021-06-24 14:53:54 GMT 48.709076 2.034724 14,975 62 406 -64
2021-06-24 14:53:52 GMT 48.707001 2.028568 14,975 62 406 -64
2021-06-24 14:53:49 GMT 48.704910 2.022400 14,975 62 406 -64
2021-06-24 14:53:48 GMT 48.704163 2.020183 14,975 62 406 -64
2021-06-24 14:53:46 GMT 48.701462 2.012160 15,000 62 406 -64
2021-06-24 14:53:42 GMT 48.695709 1.995145 15,000 62 411 -64
2021-06-24 14:53:39 GMT 48.695709 1.995145 15,000 62 413 -64
2021-06-24 14:53:34 GMT 48.691360 1.982258 14,975 62 415 0
2021-06-24 14:53:31 GMT 48.689686 1.977395 15,000 62 415 -64
2021-06-24 14:53:28 GMT 48.686646 1.968313 15,000 62 415 -64
2021-06-24 14:53:24 GMT 48.679962 1.948735 15,000 62 415 -64
2021-06-24 14:53:21 GMT 48.679962 1.948735 15,000 62 415 0
2021-06-24 14:53:18 GMT 48.677902 1.942538 15,000 62 415 0
2021-06-24 14:53:15 GMT 48.672958 1.928101 14,975 62 415 0
2021-06-24 14:53:12 GMT 48.672958 1.928101 15,000 62 415 -64
2021-06-24 14:53:09 GMT 48.669983 1.919297 15,000 62 415 -64
2021-06-24 14:53:06 GMT 48.667374 1.911551 15,000 62 415 -64
2021-06-24 14:53:03 GMT 48.664639 1.903598 14,975 62 416 -64
2021-06-24 14:53:00 GMT 48.658306 1.885023 14,975 62 416 -64
2021-06-24 14:52:56 GMT 48.653885 1.872085 14,975 62 415 -64
2021-06-24 14:52:52 GMT 48.653885 1.872085 14,975 62 416 -64
2021-06-24 14:52:48 GMT 48.651352 1.864647 14,975 62 416 -64
2021-06-24 14:52:46 GMT 48.649567 1.859506 15,000 62 416 -64
2021-06-24 14:52:44 GMT 48.647694 1.854087 15,000 62 416 -64
2021-06-24 14:52:41 GMT 48.644989 1.846055 15,000 62 416 -64
2021-06-24 14:52:38 GMT 48.642151 1.837816 14,975 62 417 -64
2021-06-24 14:52:33 GMT 48.635498 1.818454 14,975 62 417 -64
2021-06-24 14:52:30 GMT 48.632767 1.810420 14,975 62 417 -64
2021-06-24 14:52:27 GMT 48.632767 1.810420 14,975 62 417 -64
2021-06-24 14:52:24 GMT 48.630478 1.803730 14,975 62 417 -64
2021-06-24 14:52:21 GMT 48.626839 1.793084 15,000 62 417 -64
2021-06-24 14:52:17 GMT 48.624371 1.785857 15,000 62 417 -64
2021-06-24 14:52:14 GMT 48.621346 1.777111 15,000 62 417 -64
2021-06-24 14:52:11 GMT 48.615852 1.761065 15,000 62 417 -64
2021-06-24 14:52:08 GMT 48.612686 1.751741 15,000 62 417 -64
2021-06-24 14:52:04 GMT 48.612686 1.751741 14,975 62 417 -64
2021-06-24 14:52:01 GMT 48.609924 1.743727 15,000 62 417 -64
2021-06-24 14:51:58 GMT 48.607315 1.735981 15,000 62 417 -64
2021-06-24 14:51:55 GMT 48.604542 1.727961 15,000 62 417 -64
2021-06-24 14:51:52 GMT 48.601048 1.717626 15,000 62 416 64
2021-06-24 14:51:49 GMT 48.598480 1.710205 15,000 62 416 64
2021-06-24 14:51:46 GMT 48.597324 1.706784 14,975 62 416 64
2021-06-24 14:51:43 GMT 48.593784 1.696520 14,975 62 416 0
2021-06-24 14:51:39 GMT 48.586990 1.676683 14,975 62 416 0
2021-06-24 14:51:35 GMT 48.586990 1.676683 14,975 62 416 0
2021-06-24 14:51:32 GMT 48.584431 1.669199 14,975 62 416 64
2021-06-24 14:51:29 GMT 48.581451 1.660381 14,975 62 416 -64
2021-06-24 14:51:27 GMT 48.579437 1.654499 14,975 62 416 -64
2021-06-24 14:51:23 GMT 48.576416 1.645696 15,000 62 417 -64
2021-06-24 14:51:20 GMT 48.571472 1.631188 15,000 62 418 -64
2021-06-24 14:51:17 GMT 48.571472 1.631188 15,000 62 418 -64
2021-06-24 14:51:14 GMT 48.568771 1.623441 15,000 62 419 -128
2021-06-24 14:51:11 GMT 48.566040 1.615424 15,000 62 420 -64
2021-06-24 14:51:08 GMT 48.562912 1.606328 15,000 62 420 -64
2021-06-24 14:51:05 GMT 48.560074 1.597947 15,000 62 421 0
2021-06-24 14:51:02 GMT 48.558220 1.592439 15,000 62 422 -64
2021-06-24 14:50:59 GMT 48.553936 1.579935 14,975 62 421 0
2021-06-24 14:50:55 GMT 48.548210 1.563167 14,975 62 419 0
2021-06-24 14:50:51 GMT 48.548210 1.563167 14,975 62 419 0
2021-06-24 14:50:47 GMT 48.544487 1.552253 14,975 62 419 -64
2021-06-24 14:50:44 GMT 48.539017 1.536466 15,000 62 419 -64
2021-06-24 14:50:41 GMT 48.536865 1.530198 14,975 62 419 -64
2021-06-24 14:50:38 GMT 48.536865 1.530198 14,975 62 419 -64
2021-06-24 14:50:35 GMT 48.534164 1.522452 14,975 62 419 -64
2021-06-24 14:50:32 GMT 48.529964 1.510259 14,975 62 420 0
2021-06-24 14:50:29 GMT 48.525074 1.496237 15,000 62 420 -64
2021-06-24 14:50:25 GMT 48.525074 1.496237 15,000 62 421 -64
2021-06-24 14:50:22 GMT 48.521759 1.486676 15,000 62 421 -64
2021-06-24 14:50:18 GMT 48.518230 1.476505 15,000 62 421 -64
2021-06-24 14:50:14 GMT 48.514835 1.466603 15,000 62 421 -64
2021-06-24 14:50:11 GMT 48.511948 1.458291 15,000 62 421 -64
2021-06-24 14:50:08 GMT 48.507057 1.444196 15,000 62 421 -64
2021-06-24 14:50:05 GMT 48.507057 1.444196 15,000 62 421 -64
2021-06-24 14:50:01 GMT 48.501755 1.428856 15,000 62 421 -64
2021-06-24 14:49:56 GMT 48.499054 1.421039 15,000 62 421 0
2021-06-24 14:49:53 GMT 48.495934 1.411960 15,000 62 419 64
2021-06-24 14:49:48 GMT 48.491867 1.400264 14,975 62 419 64
2021-06-24 14:49:45 GMT 48.488716 1.391216 14,975 62 416 -64
2021-06-24 14:49:42 GMT 48.486065 1.383482 14,975 62 416 -64
2021-06-24 14:49:38 GMT 48.479641 1.364979 14,975 62 417 -128
2021-06-24 14:49:35 GMT 48.479641 1.364979 14,975 62 417 -128
2021-06-24 14:49:30 GMT 48.474983 1.351680 15,000 62 417 -128
2021-06-24 14:49:27 GMT 48.469299 1.335402 15,000 62 420 -64
2021-06-24 14:49:24 GMT 48.469299 1.335402 15,000 62 422 -64
2021-06-24 14:49:20 GMT 48.466698 1.327828 14,975 62 431 -2048
2021-06-24 14:49:16 GMT 48.462387 1.315542 15,000 62 421 -64
2021-06-24 14:49:13 GMT 48.458878 1.305422 15,000 62 421 -64
2021-06-24 14:49:10 GMT 48.457123 1.300471 15,000 62 421 -64
2021-06-24 14:49:08 GMT 48.455338 1.295260 15,000 62 421 -64
2021-06-24 14:49:05 GMT 48.451904 1.285471 15,000 62 420 -64
2021-06-24 14:49:01 GMT 48.445145 1.266102 15,000 62 419 64
2021-06-24 14:48:57 GMT 48.445145 1.266102 15,000 62 419 64
2021-06-24 14:48:54 GMT 48.442772 1.259380 15,000 62 419 64
2021-06-24 14:48:51 GMT 48.439270 1.249343 15,000 62 418 64
2021-06-24 14:48:48 GMT 48.437073 1.243145 14,975 62 415 -192
2021-06-24 14:48:45 GMT 48.434483 1.235673 14,975 62 415 -192
2021-06-24 14:48:42 GMT 48.431786 1.228011 14,975 62 415 -192
2021-06-24 14:48:38 GMT 48.428101 1.217511 14,975 62 414 -64
2021-06-24 14:48:34 GMT 48.421589 1.198883 14,975 62 415 -192
2021-06-24 14:48:30 GMT 48.421589 1.198883 14,975 62 416 -256
2021-06-24 14:48:28 GMT 48.419960 1.194257 14,975 62 416 -384
2021-06-24 14:48:25 GMT 48.417023 1.185819 15,025 62 419 -1024
2021-06-24 14:48:22 GMT 48.414097 1.177416 15,025 62 419 -1024
2021-06-24 14:48:20 GMT 48.412277 1.172285 15,125 62 419 -1024
2021-06-24 14:48:16 GMT 48.408600 1.161663 15,125 62 420 -1088
2021-06-24 14:48:14 GMT 48.403667 1.147349 15,225 62 424 -1280
2021-06-24 14:48:11 GMT 48.403667 1.147349 15,225 62 425 -1408
2021-06-24 14:48:08 GMT 48.400547 1.138458 15,325 62 427 -1664
2021-06-24 14:48:05 GMT 48.398499 1.132676 15,350 62 428 -1728
2021-06-24 14:48:02 GMT 48.395752 1.124725 15,500 62 431 -1984
2021-06-24 14:47:58 GMT 48.392029 1.114100 15,625 62 436 -2816
2021-06-24 14:47:55 GMT 48.389328 1.106380 15,725 62 436 -2816
2021-06-24 14:47:52 GMT 48.387085 1.099971 15,850 62 436 -2816
2021-06-24 14:47:49 GMT 48.384064 1.091379 15,925 62 436 -2816
2021-06-24 14:47:46 GMT 48.381042 1.082787 16,125 62 438 -2816
2021-06-24 14:47:44 GMT 48.378342 1.074998 16,300 62 438 -2816
2021-06-24 14:47:41 GMT 48.373718 1.061871 16,475 62 438 -2752
2021-06-24 14:47:38 GMT 48.373718 1.061871 16,475 62 439 -2752
2021-06-24 14:47:37 GMT 48.372757 1.059124 16,525 62 439 -2752
2021-06-24 14:47:35 GMT 48.370800 1.053459 16,600 62 439 -2688
2021-06-24 14:47:34 GMT 48.369823 1.050784 16,650 62 440 -2688
2021-06-24 14:47:33 GMT 48.367962 1.045364 16,750 62 440 -2688
2021-06-24 14:47:31 GMT 48.367214 1.043195 16,775 62 440 -2688
2021-06-24 14:47:30 GMT 48.363510 1.032644 16,875 62 441 -2688
2021-06-24 14:47:28 GMT 48.363510 1.032644 16,900 62 441 -2688
2021-06-24 14:47:27 GMT 48.362423 1.029679 17,000 62 442 -2752
2021-06-24 14:47:26 GMT 48.361492 1.026933 17,050 62 442 -2816
2021-06-24 14:47:24 GMT 48.360443 1.023982 17,100 62 442 -2816
2021-06-24 14:47:21 GMT 48.357605 1.015813 17,225 62 443 -2880
2021-06-24 14:47:18 GMT 48.354229 1.006261 17,425 62 444 -2880
2021-06-24 14:47:15 GMT 48.351948 0.999756 17,500 62 444 -2880
2021-06-24 14:47:12 GMT 48.348640 0.990432 17,725 61 446 -2624
2021-06-24 14:47:08 GMT 48.344173 0.977928 17,850 62 451 -2496
2021-06-24 14:47:05 GMT 48.342133 0.972149 17,950 62 451 -2496
2021-06-24 14:47:02 GMT 48.338791 0.962853 18,200 62 451 -2496
2021-06-24 14:46:59 GMT 48.336273 0.955670 18,200 62 451 -2496
2021-06-24 14:46:57 GMT 48.332256 0.944318 18,275 62 453 -2560
2021-06-24 14:46:52 GMT 48.329323 0.936006 18,475 62 454 -2624
2021-06-24 14:46:50 GMT 48.327072 0.929542 18,575 62 454 -2624
2021-06-24 14:46:49 GMT 48.325970 0.926538 18,625 62 456 -2688
2021-06-24 14:46:47 GMT 48.323914 0.920668 18,725 62 456 -2688
2021-06-24 14:46:44 GMT 48.321037 0.912516 18,850 61 457 -2752
2021-06-24 14:46:42 GMT 48.319565 0.908344 18,925 61 457 -2752
2021-06-24 14:46:41 GMT 48.318558 0.905527 18,950 61 458 -2816
2021-06-24 14:46:40 GMT 48.317551 0.902780 19,000 61 458 -2880
2021-06-24 14:46:38 GMT 48.315449 0.896831 19,100 61 459 -2880
2021-06-24 14:46:37 GMT 48.314472 0.894085 19,150 61 459 -2880
2021-06-24 14:46:36 GMT 48.311634 0.886206 19,325 61 461 -2752
2021-06-24 14:46:34 GMT 48.307629 0.874931 19,325 61 461 -2752
2021-06-24 14:46:31 GMT 48.307629 0.874931 19,425 61 461 -2752
2021-06-24 14:46:28 GMT 48.305630 0.869293 19,525 61 462 -2624
2021-06-24 14:46:27 GMT 48.303627 0.863655 19,650 61 463 -2560
2021-06-24 14:46:25 GMT 48.297867 0.847497 19,800 62 464 -2560
2021-06-24 14:46:21 GMT 48.296860 0.844680 19,900 61 465 -2560
2021-06-24 14:46:19 GMT 48.295853 0.841792 19,950 61 467 -2560
2021-06-24 14:46:18 GMT 48.294846 0.838975 20,000 61 469 -2688
2021-06-24 14:46:15 GMT 48.291660 0.830118 20,125 61 469 -2688
2021-06-24 14:46:14 GMT 48.290771 0.827566 20,175 61 469 -2688
2021-06-24 14:46:13 GMT 48.289719 0.824679 20,225 61 469 -2688
2021-06-24 14:46:12 GMT 48.287567 0.818698 20,300 61 469 -2624
2021-06-24 14:46:09 GMT 48.285645 0.813200 20,375 61 470 -2496
2021-06-24 14:46:05 GMT 48.281422 0.801424 20,525 61 472 -2432
2021-06-24 14:46:02 GMT 48.278954 0.794485 20,625 61 474 -2432
2021-06-24 14:46:00 GMT 48.276993 0.788973 20,725 61 474 -2432
2021-06-24 14:45:58 GMT 48.274979 0.783128 20,825 62 476 -2624
2021-06-24 14:45:55 GMT 48.271866 0.774395 20,950 62 476 -2624
2021-06-24 14:45:54 GMT 48.270294 0.770055 20,950 61 476 -2752
2021-06-24 14:45:51 GMT 48.264103 0.752563 21,175 61 479 -2880
2021-06-24 14:45:48 GMT 48.262115 0.746929 21,350 61 479 -2880
2021-06-24 14:45:46 GMT 48.262115 0.746929 21,350 61 479 -2880
2021-06-24 14:45:44 GMT 48.260147 0.741360 21,450 61 480 -2880
2021-06-24 14:45:43 GMT 48.259003 0.738197 21,500 61 480 -2880
2021-06-24 14:45:42 GMT 48.258053 0.735506 21,550 61 480 -2880
2021-06-24 14:45:39 GMT 48.255119 0.727338 21,650 61 480 -2816
2021-06-24 14:45:38 GMT 48.254047 0.724375 21,700 61 483 -2624
2021-06-24 14:45:37 GMT 48.252914 0.721154 21,750 61 483 -2624
2021-06-24 14:45:36 GMT 48.251301 0.716713 21,800 61 483 -2624
2021-06-24 14:45:35 GMT 48.250462 0.714328 21,850 61 484 -2560
2021-06-24 14:45:33 GMT 48.248367 0.708474 21,925 61 484 -2560
2021-06-24 14:45:31 GMT 48.245911 0.701646 22,025 61 485 -2624
2021-06-24 14:45:30 GMT 48.244858 0.698688 22,075 61 485 -2624
2021-06-24 14:45:28 GMT 48.242828 0.693078 22,150 61 486 -2752
2021-06-24 14:45:27 GMT 48.241806 0.690115 22,200 61 487 -2816
2021-06-24 14:45:25 GMT 48.239662 0.684116 22,275 61 487 -3008
2021-06-24 14:45:24 GMT 48.238495 0.680871 22,350 61 487 -3008
2021-06-24 14:45:23 GMT 48.237568 0.678189 22,375 61 488 -3008
2021-06-24 14:45:21 GMT 48.235428 0.672262 22,475 61 488 -3072
2021-06-24 14:45:19 GMT 48.233288 0.666263 22,525 61 488 -3072
2021-06-24 14:45:17 GMT 48.231190 0.660264 22,700 61 489 -3072
2021-06-24 14:45:15 GMT 48.230026 0.656997 22,725 61 489 -3072
2021-06-24 14:45:14 GMT 48.226364 0.646855 22,850 61 489 -3072
2021-06-24 14:45:12 GMT 48.226364 0.646855 22,900 61 489 -3072
2021-06-24 14:45:10 GMT 48.224258 0.640869 23,025 61 490 -3008
2021-06-24 14:45:08 GMT 48.222107 0.634883 23,075 61 490 -3008
2021-06-24 14:45:07 GMT 48.220947 0.631569 23,150 61 491 -2944
2021-06-24 14:45:06 GMT 48.219879 0.628606 23,225 61 491 -2944
2021-06-24 14:45:05 GMT 48.216568 0.619319 23,325 61 492 -2944
2021-06-24 14:45:03 GMT 48.216568 0.619319 23,375 61 492 -2944
2021-06-24 14:45:01 GMT 48.214291 0.612994 23,500 61 493 -2944
2021-06-24 14:44:59 GMT 48.211266 0.604537 23,550 61 493 -3008
2021-06-24 14:44:57 GMT 48.210114 0.601290 23,675 61 493 -3072
2021-06-24 14:44:55 GMT 48.207504 0.594036 23,750 61 494 -3200
2021-06-24 14:44:53 GMT 48.205994 0.589811 23,850 61 494 -3200
2021-06-24 14:44:51 GMT 48.203384 0.582628 23,950 61 495 -3200
2021-06-24 14:44:50 GMT 48.202190 0.579312 24,075 61 495 -3200
2021-06-24 14:44:48 GMT 48.199348 0.571434 24,275 61 496 -3072
2021-06-24 14:44:45 GMT 48.196743 0.564206 24,275 61 496 -3072
2021-06-24 14:44:44 GMT 48.193714 0.555749 24,425 61 496 -3008
2021-06-24 14:44:42 GMT 48.193714 0.555749 24,425 61 496 -2944
2021-06-24 14:44:40 GMT 48.191574 0.549678 24,500 61 497 -2880
2021-06-24 14:44:39 GMT 48.190502 0.546642 24,550 61 497 -2880
2021-06-24 14:44:38 GMT 48.189514 0.543964 24,650 61 497 -2880
2021-06-24 14:44:36 GMT 48.187244 0.537607 24,750 61 498 -2944
2021-06-24 14:44:35 GMT 48.186359 0.535150 24,750 61 498 -2944
2021-06-24 14:44:34 GMT 48.184753 0.530583 24,800 62 499 -3072
2021-06-24 14:44:33 GMT 48.181915 0.522625 24,850 62 499 -3200
2021-06-24 14:44:31 GMT 48.181915 0.522625 25,000 62 499 -3200
2021-06-24 14:44:29 GMT 48.179424 0.515635 25,100 62 499 -3520
2021-06-24 14:44:28 GMT 48.178120 0.512021 25,125 61 499 -3648
2021-06-24 14:44:26 GMT 48.176102 0.506216 25,250 61 498 -3904
2021-06-24 14:44:25 GMT 48.174908 0.502841 25,300 61 498 -4032
2021-06-24 14:44:23 GMT 48.173035 0.497695 25,425 61 498 -4224
2021-06-24 14:44:22 GMT 48.171837 0.494385 25,500 61 497 -4288
2021-06-24 14:44:21 GMT 48.169697 0.488313 25,650 61 497 -4288
2021-06-24 14:44:19 GMT 48.168579 0.485278 25,725 61 497 -4288
2021-06-24 14:44:18 GMT 48.167507 0.482242 25,775 61 497 -4288
2021-06-24 14:44:17 GMT 48.165253 0.475863 26,250 61 495 -3904
2021-06-24 14:44:14 GMT 48.163177 0.470171 26,250 61 495 -3904
2021-06-24 14:44:12 GMT 48.161133 0.464384 26,250 61 495 -3904
2021-06-24 14:44:10 GMT 48.159164 0.458954 26,325 61 495 -3712
2021-06-24 14:44:09 GMT 48.158112 0.455933 26,425 61 495 -3584
2021-06-24 14:44:07 GMT 48.155914 0.449890 26,450 61 495 -3584
2021-06-24 14:44:05 GMT 48.153763 0.443848 26,600 61 494 -3776
2021-06-24 14:44:04 GMT 48.152664 0.440895 26,650 61 494 -3776
2021-06-24 14:44:02 GMT 48.149872 0.433067 26,825 61 494 -3840
2021-06-24 14:44:01 GMT 48.148888 0.430298 26,875 61 494 -3904
2021-06-24 14:44:00 GMT 48.146744 0.424312 26,950 61 494 -3968
2021-06-24 14:43:58 GMT 48.145752 0.421600 27,100 61 494 -3968
2021-06-24 14:43:57 GMT 48.144791 0.418889 27,150 61 494 -3968
2021-06-24 14:43:56 GMT 48.143646 0.415558 27,200 61 493 -3904
2021-06-24 14:43:54 GMT 48.141678 0.410202 27,275 61 493 -3904
2021-06-24 14:43:53 GMT 48.140507 0.406846 27,375 61 493 -3840
2021-06-24 14:43:52 GMT 48.138134 0.400297 27,475 61 493 -3776
2021-06-24 14:43:50 GMT 48.137192 0.397568 27,575 61 492 -3648
2021-06-24 14:43:49 GMT 48.135269 0.392143 27,700 61 492 -3456
2021-06-24 14:43:46 GMT 48.131058 0.380507 28,050 62 493 -2752
2021-06-24 14:43:44 GMT 48.131058 0.380507 28,050 62 493 -2752
2021-06-24 14:43:42 GMT 48.128632 0.373604 28,050 62 493 -2752
2021-06-24 14:43:40 GMT 48.124027 0.360647 28,150 62 494 -2688
2021-06-24 14:43:38 GMT 48.124027 0.360647 28,175 62 494 -2688
2021-06-24 14:43:36 GMT 48.122223 0.355476 28,250 62 494 -2752
2021-06-24 14:43:34 GMT 48.119843 0.348885 28,375 62 495 -3136
2021-06-24 14:43:33 GMT 48.117603 0.342548 28,475 62 495 -3136
2021-06-24 14:43:30 GMT 48.115463 0.336492 28,575 62 495 -3392
2021-06-24 14:43:29 GMT 48.113434 0.330757 28,675 62 495 -3520
2021-06-24 14:43:26 GMT 48.112484 0.328040 28,750 62 494 -3648
2021-06-24 14:43:24 GMT 48.109505 0.319589 28,900 61 493 -3968
2021-06-24 14:43:23 GMT 48.106243 0.310575 29,100 61 493 -4032
2021-06-24 14:43:20 GMT 48.105175 0.307547 29,175 61 493 -4032
2021-06-24 14:43:19 GMT 48.102036 0.298897 29,225 61 493 -4096
2021-06-24 14:43:17 GMT 48.102036 0.298897 29,425 61 492 -4032
2021-06-24 14:43:16 GMT 48.101166 0.296494 29,500 61 492 -3840
2021-06-24 14:43:15 GMT 48.100067 0.293472 29,550 61 492 -3840
2021-06-24 14:43:13 GMT 48.098003 0.287828 29,650 61 491 -3520
2021-06-24 14:43:12 GMT 48.096817 0.284546 29,725 61 491 -3328
2021-06-24 14:43:11 GMT 48.094559 0.278320 29,775 61 491 -2944
2021-06-24 14:43:09 GMT 48.093491 0.275292 29,850 61 491 -2240
2021-06-24 14:43:08 GMT 48.092285 0.272049 29,900 61 491 -2240
2021-06-24 14:43:07 GMT 48.091347 0.269376 29,925 61 491 -2240
2021-06-24 14:43:05 GMT 48.089207 0.263390 29,975 61 491 -1408
2021-06-24 14:43:04 GMT 48.085648 0.253510 30,000 61 491 -832
2021-06-24 14:43:02 GMT 48.085648 0.253510 30,000 61 491 -576
2021-06-24 14:43:00 GMT 48.083496 0.247536 30,000 61 491 -192
2021-06-24 14:42:58 GMT 48.079945 0.237685 30,000 61 491 -64
2021-06-24 14:42:56 GMT 48.078873 0.234727 30,000 61 491 -64
2021-06-24 14:42:54 GMT 48.077801 0.231699 30,000 61 491 -64
2021-06-24 14:42:52 GMT 48.075760 0.226044 30,000 61 491 -64
2021-06-24 14:42:51 GMT 48.074821 0.223389 30,000 61 491 -64
2021-06-24 14:42:49 GMT 48.072636 0.217403 30,000 61 491 0
2021-06-24 14:42:48 GMT 48.070492 0.211416 30,000 61 490 0
2021-06-24 14:42:45 GMT 48.068352 0.205501 30,000 61 490 0
2021-06-24 14:42:44 GMT 48.066971 0.201599 30,000 61 490 0
2021-06-24 14:42:42 GMT 48.064720 0.195359 30,000 61 489 0
2021-06-24 14:42:40 GMT 48.062580 0.189444 29,975 61 489 0
2021-06-24 14:42:39 GMT 48.061615 0.186768 29,975 61 489 0
2021-06-24 14:42:37 GMT 48.058064 0.176978 29,975 61 486 -64
2021-06-24 14:42:34 GMT 48.053604 0.164864 29,975 61 486 -64
2021-06-24 14:42:32 GMT 48.053604 0.164864 29,975 61 486 -64
2021-06-24 14:42:29 GMT 48.050354 0.156075 30,000 61 486 -64
2021-06-24 14:42:27 GMT 48.048100 0.149935 30,000 60 486 -64
2021-06-24 14:42:25 GMT 48.046566 0.145780 30,000 60 486 -64
2021-06-24 14:42:23 GMT 48.043625 0.137947 30,000 60 485 -64
2021-06-24 14:42:22 GMT 48.042480 0.134995 29,975 60 485 -64
2021-06-24 14:42:19 GMT 48.039955 0.128315 30,000 60 485 -64
2021-06-24 14:42:18 GMT 48.038837 0.125427 30,000 59 485 -64
2021-06-24 14:42:17 GMT 48.037720 0.122540 29,975 59 484 0
2021-06-24 14:42:15 GMT 48.035339 0.116455 30,000 59 484 -64
2021-06-24 14:42:13 GMT 48.032970 0.110427 30,000 59 484 -64
2021-06-24 14:42:12 GMT 48.031723 0.107323 30,000 59 483 -64
2021-06-24 14:42:09 GMT 48.027603 0.096954 30,000 59 483 -64
2021-06-24 14:42:07 GMT 48.026459 0.094139 30,000 59 483 -64
2021-06-24 14:42:05 GMT 48.020966 0.080338 30,000 59 483 -64
2021-06-24 14:42:03 GMT 48.020966 0.080338 30,000 59 483 -64
2021-06-24 14:42:01 GMT 48.016308 0.068594 30,000 59 483 -64
2021-06-24 14:41:59 GMT 48.014675 0.064580 30,000 59 483 -64
2021-06-24 14:41:57 GMT 48.014675 0.064580 30,000 59 483 -64
2021-06-24 14:41:56 GMT 48.013184 0.060905 30,000 59 483 0
2021-06-24 14:41:54 GMT 48.010895 0.055138 30,000 59 483 0
2021-06-24 14:41:53 GMT 48.008881 0.049988 30,000 59 483 0
2021-06-24 14:41:51 GMT 48.007736 0.047104 30,000 59 483 0
2021-06-24 14:41:50 GMT 48.006592 0.044289 30,000 59 484 0
2021-06-24 14:41:48 GMT 48.004074 0.037971 29,975 59 484 0
2021-06-24 14:41:46 GMT 48.002014 0.032822 29,975 59 484 0
2021-06-24 14:41:45 GMT 48.000412 0.028839 29,975 59 484 -64
2021-06-24 14:41:43 GMT 47.997311 0.021057 29,975 59 483 0
2021-06-24 14:41:41 GMT 47.996292 0.018539 29,975 59 483 0
2021-06-24 14:41:39 GMT 47.994003 0.012772 30,000 59 483 -64
2021-06-24 14:41:38 GMT 47.992355 0.008789 30,000 59 483 -64
2021-06-24 14:41:36 GMT 47.990067 0.003090 29,975 59 483 0
2021-06-24 14:41:33 GMT 47.986744 -0.005211 29,975 59 484 0
2021-06-24 14:41:32 GMT 47.984344 -0.011192 30,000 59 484 0
2021-06-24 14:41:30 GMT 47.983299 -0.013803 30,000 59 484 -64
2021-06-24 14:41:29 GMT 47.982056 -0.016891 30,000 59 484 -64
2021-06-24 14:41:28 GMT 47.978622 -0.025475 30,000 59 484 -64
2021-06-24 14:41:26 GMT 47.978622 -0.025475 30,000 59 484 0
2021-06-24 14:41:25 GMT 47.977478 -0.028358 29,975 59 484 -64
2021-06-24 14:41:23 GMT 47.975060 -0.034367 29,975 59 484 0
2021-06-24 14:41:22 GMT 47.973770 -0.037491 30,000 59 484 -64
2021-06-24 14:41:19 GMT 47.971382 -0.043523 30,000 59 484 0
2021-06-24 14:41:18 GMT 47.970219 -0.046410 30,000 59 484 -64
2021-06-24 14:41:16 GMT 47.968048 -0.051842 29,975 59 484 0
2021-06-24 14:41:15 GMT 47.966904 -0.054657 29,975 59 484 0
2021-06-24 14:41:13 GMT 47.964493 -0.060707 29,975 59 484 0
2021-06-24 14:41:12 GMT 47.963196 -0.063858 29,975 59 484 -64
2021-06-24 14:41:10 GMT 47.959991 -0.071823 29,975 58 485 0
2021-06-24 14:41:07 GMT 47.957199 -0.078690 29,975 58 485 0
2021-06-24 14:41:05 GMT 47.954224 -0.086174 29,975 58 485 -64
2021-06-24 14:41:04 GMT 47.953182 -0.088736 29,975 59 486 -64
2021-06-24 14:41:02 GMT 47.950974 -0.094139 29,975 59 486 -64
2021-06-24 14:41:01 GMT 47.949829 -0.097023 29,975 59 486 -64
2021-06-24 14:41:00 GMT 47.948807 -0.099581 29,975 59 486 -64
2021-06-24 14:40:59 GMT 47.947769 -0.102173 30,000 59 486 -64
2021-06-24 14:40:57 GMT 47.945545 -0.107610 29,975 59 486 -64
2021-06-24 14:40:55 GMT 47.943375 -0.113091 29,975 59 486 -64
2021-06-24 14:40:54 GMT 47.942459 -0.115356 30,000 59 486 -64
2021-06-24 14:40:51 GMT 47.938145 -0.125991 30,000 59 486 -64
2021-06-24 14:40:49 GMT 47.936562 -0.130005 30,000 59 486 -64
2021-06-24 14:40:48 GMT 47.935398 -0.132892 30,000 59 486 -64
2021-06-24 14:40:47 GMT 47.934235 -0.135780 30,000 59 486 -64
2021-06-24 14:40:43 GMT 47.928543 -0.149826 30,000 59 487 -64
2021-06-24 14:40:40 GMT 47.925201 -0.158175 29,975 59 487 -64
2021-06-24 14:40:38 GMT 47.923340 -0.162753 30,000 59 487 -64
2021-06-24 14:40:35 GMT 47.920029 -0.171043 30,000 59 487 -64
2021-06-24 14:40:29 GMT 47.913345 -0.187729 29,975 59 486 -64
2021-06-24 14:40:26 GMT 47.906536 -0.204656 29,975 59 485 -64
2021-06-24 14:40:23 GMT 47.906536 -0.204656 30,000 59 485 -64
2021-06-24 14:40:19 GMT 47.898018 -0.225854 29,975 59 485 0
2021-06-24 14:40:16 GMT 47.898018 -0.225854 30,000 59 484 -64
2021-06-24 14:40:14 GMT 47.895813 -0.231262 29,975 59 484 -64
2021-06-24 14:40:10 GMT 47.892151 -0.240395 30,000 59 484 -64
2021-06-24 14:40:08 GMT 47.888798 -0.248671 30,000 59 484 -64
2021-06-24 14:40:05 GMT 47.885468 -0.257011 30,000 59 484 -64
2021-06-24 14:40:03 GMT 47.883179 -0.262711 30,000 59 484 0
2021-06-24 14:39:59 GMT 47.879814 -0.270996 30,000 59 484 0
2021-06-24 14:39:57 GMT 47.876415 -0.279518 29,975 59 483 -64
2021-06-24 14:39:54 GMT 47.873062 -0.287773 30,000 59 483 -64
2021-06-24 14:39:51 GMT 47.869171 -0.297455 30,000 59 483 -64
2021-06-24 14:39:48 GMT 47.866547 -0.304026 30,000 59 483 0
2021-06-24 14:39:46 GMT 47.863678 -0.311119 30,000 59 482 0
2021-06-24 14:39:43 GMT 47.859787 -0.320801 30,000 59 482 0
2021-06-24 14:39:40 GMT 47.857189 -0.327336 30,000 59 482 0
2021-06-24 14:39:38 GMT 47.854862 -0.333041 30,000 59 482 0
2021-06-24 14:39:36 GMT 47.852581 -0.338745 30,000 59 482 0
2021-06-24 14:39:33 GMT 47.849834 -0.345506 30,000 59 482 0
2021-06-24 14:39:30 GMT 47.845970 -0.355225 30,000 59 482 0
2021-06-24 14:39:27 GMT 47.842621 -0.363441 30,000 59 482 64
2021-06-24 14:39:24 GMT 47.838043 -0.374840 29,975 59 483 0
2021-06-24 14:39:21 GMT 47.834839 -0.382805 29,975 59 483 64
2021-06-24 14:39:17 GMT 47.830261 -0.394135 29,975 59 483 -64
2021-06-24 14:39:14 GMT 47.827396 -0.401283 29,975 59 483 -64
2021-06-24 14:39:12 GMT 47.825581 -0.405860 29,975 59 484 -192
2021-06-24 14:39:09 GMT 47.821564 -0.415833 29,975 59 484 -256
2021-06-24 14:39:06 GMT 47.817627 -0.425514 30,000 59 483 -384
2021-06-24 14:39:03 GMT 47.814194 -0.434029 30,050 59 482 -768
2021-06-24 14:38:58 GMT 47.808701 -0.447693 30,050 59 483 -704
2021-06-24 14:38:56 GMT 47.805267 -0.456207 30,075 59 481 -896
2021-06-24 14:38:53 GMT 47.802864 -0.462200 30,125 59 480 -896
2021-06-24 14:38:49 GMT 47.799465 -0.470651 30,150 58 479 -1024
2021-06-24 14:38:47 GMT 47.796616 -0.477699 30,225 58 476 -1152
2021-06-24 14:38:44 GMT 47.790108 -0.493681 30,300 58 473 -1344
2021-06-24 14:38:39 GMT 47.787174 -0.500864 30,350 58 473 -1408
2021-06-24 14:38:37 GMT 47.784706 -0.506920 30,425 58 469 -1728
2021-06-24 14:38:34 GMT 47.781731 -0.514104 30,475 58 467 -1856
2021-06-24 14:38:30 GMT 47.777027 -0.525513 30,625 58 465 -2176
2021-06-24 14:38:27 GMT 47.773441 -0.534245 30,825 58 462 -2688
2021-06-24 14:38:24 GMT 47.770092 -0.542344 31,250 58 461 -2944
2021-06-24 14:38:22 GMT 47.768555 -0.546147 30,975 58 461 -3008
2021-06-24 14:38:19 GMT 47.765018 -0.554739 31,100 58 459 -2688
2021-06-24 14:38:16 GMT 47.762238 -0.561470 31,250 58 458 -2368
2021-06-24 14:38:14 GMT 47.758823 -0.569810 31,350 58 458 -2176
2021-06-24 14:38:10 GMT 47.754681 -0.580022 31,475 58 458 -1856
2021-06-24 14:38:07 GMT 47.750725 -0.589670 31,800 58 458 -1856
2021-06-24 14:38:04 GMT 47.747887 -0.596642 31,675 58 458 -1856
2021-06-24 14:38:00 GMT 47.744064 -0.606033 31,825 58 457 -1792
2021-06-24 14:37:56 GMT 47.740017 -0.615939 31,875 58 457 -1792
2021-06-24 14:37:54 GMT 47.736832 -0.623680 32,600 58 455 -1728
2021-06-24 14:37:49 GMT 47.732483 -0.634392 32,100 58 457 -1856
2021-06-24 14:37:47 GMT 47.729729 -0.641080 32,175 58 456 -1920
2021-06-24 14:37:44 GMT 47.721817 -0.660306 32,325 58 456 -1920
2021-06-24 14:37:40 GMT 47.721817 -0.660306 32,400 58 456 -1920
2021-06-24 14:37:38 GMT 47.719757 -0.665359 32,450 58 455 -1856
2021-06-24 14:37:35 GMT 47.716003 -0.674423 32,550 58 455 -1792
2021-06-24 14:37:32 GMT 47.712646 -0.682631 32,650 58 455 -1728
2021-06-24 14:37:29 GMT 47.710785 -0.687195 32,700 58 455 -1728
2021-06-24 14:37:26 GMT 47.707260 -0.695709 32,775 58 455 -1728
2021-06-24 14:37:23 GMT 47.703243 -0.705519 32,900 58 454 -1792
2021-06-24 14:37:19 GMT 47.698448 -0.717210 33,050 58 454 -1792
2021-06-24 14:37:16 GMT 47.694809 -0.725990 33,125 58 454 -1728
2021-06-24 14:37:13 GMT 47.692841 -0.730797 33,225 58 454 -1728
2021-06-24 14:37:09 GMT 47.688492 -0.741371 33,300 58 453 -1664
2021-06-24 14:37:06 GMT 47.681828 -0.757564 33,400 58 453 -1600
2021-06-24 14:37:03 GMT 47.681828 -0.757564 33,450 58 453 -1536
2021-06-24 14:37:01 GMT 47.679222 -0.763902 33,500 58 453 -1536
2021-06-24 14:36:58 GMT 47.676453 -0.770485 33,525 58 453 -1536
2021-06-24 14:36:55 GMT 47.673431 -0.777901 33,625 58 453 -1472
2021-06-24 14:36:53 GMT 47.671005 -0.783737 33,725 58 454 -1408
2021-06-24 14:36:48 GMT 47.665100 -0.798019 33,800 58 454 -1280
2021-06-24 14:36:45 GMT 47.661850 -0.805984 33,875 58 454 -1216
2021-06-24 14:36:42 GMT 47.658459 -0.814256 33,925 58 454 -1216
2021-06-24 14:36:39 GMT 47.655151 -0.822214 34,025 58 456 -1216
2021-06-24 14:36:35 GMT 47.650311 -0.833905 34,075 58 456 -1280
2021-06-24 14:36:32 GMT 47.648357 -0.838693 34,100 58 456 -1280
2021-06-24 14:36:28 GMT 47.639977 -0.858835 34,250 58 456 -1216
2021-06-24 14:36:25 GMT 47.639977 -0.858835 34,250 58 456 -1216
2021-06-24 14:36:22 GMT 47.637177 -0.865517 34,300 58 457 -1216
2021-06-24 14:36:18 GMT 47.629597 -0.883906 34,400 58 457 -1280
2021-06-24 14:36:15 GMT 47.629597 -0.883906 34,450 58 458 -1344
2021-06-24 14:36:13 GMT 47.626709 -0.890879 34,500 58 458 -1344
2021-06-24 14:36:08 GMT 47.620983 -0.904752 34,650 58 458 -1344
2021-06-24 14:36:05 GMT 47.616795 -0.914894 34,725 58 459 -1216
2021-06-24 14:36:02 GMT 47.615025 -0.919189 34,725 58 459 -1216
2021-06-24 14:36:00 GMT 47.612186 -0.926162 34,775 58 459 -1216
2021-06-24 14:35:56 GMT 47.604126 -0.945648 34,875 58 459 -1088
2021-06-24 14:35:53 GMT 47.604126 -0.945648 34,925 58 459 -1088
2021-06-24 14:35:51 GMT 47.602341 -0.949974 34,950 58 460 -1024
2021-06-24 14:35:49 GMT 47.599686 -0.956429 34,975 58 460 -1024
2021-06-24 14:35:45 GMT 47.596031 -0.965248 35,025 58 461 -1024
2021-06-24 14:35:42 GMT 47.592915 -0.972783 35,100 58 462 -1024
2021-06-24 14:35:40 GMT 47.590679 -0.978135 35,100 58 462 -1024
2021-06-24 14:35:38 GMT 47.588444 -0.983488 35,150 58 462 -1024
2021-06-24 14:35:35 GMT 47.584534 -0.992889 35,200 58 462 -1024
2021-06-24 14:35:32 GMT 47.580578 -1.002362 35,275 58 463 -1024
2021-06-24 14:35:28 GMT 47.577118 -1.010674 35,350 58 468 -1088
2021-06-24 14:35:24 GMT 47.571487 -1.024200 35,375 58 465 -896
2021-06-24 14:35:21 GMT 47.569126 -1.029827 35,450 58 465 -896
2021-06-24 14:35:18 GMT 47.565628 -1.038277 35,450 58 465 -896
2021-06-24 14:35:14 GMT 47.560913 -1.049675 35,500 58 466 -960
2021-06-24 14:35:11 GMT 47.557625 -1.057575 35,525 58 467 -960
2021-06-24 14:35:07 GMT 47.550110 -1.075836 35,650 58 469 -1152
2021-06-24 14:35:04 GMT 47.550110 -1.075836 35,650 58 469 -1152
2021-06-24 14:35:01 GMT 47.546722 -1.084007 35,700 58 469 -1216
2021-06-24 14:34:58 GMT 47.542961 -1.093069 35,800 58 469 -1088
2021-06-24 14:34:54 GMT 47.538116 -1.104813 35,850 58 470 -1088
2021-06-24 14:34:51 GMT 47.534912 -1.112434 36,000 58 470 -1152
2021-06-24 14:34:48 GMT 47.531372 -1.120958 35,950 58 470 -1216
2021-06-24 14:34:44 GMT 47.523365 -1.140043 36,050 58 470 -1280
2021-06-24 14:34:41 GMT 47.519920 -1.148212 36,125 58 471 -1280
2021-06-24 14:34:38 GMT 47.519920 -1.148212 36,225 57 471 -1344
2021-06-24 14:34:34 GMT 47.515545 -1.158565 36,225 58 472 -1344
2021-06-24 14:34:31 GMT 47.512253 -1.166542 36,300 59 471 -1408
2021-06-24 14:34:26 GMT 47.507080 -1.179245 36,400 60 472 -1408
2021-06-24 14:34:23 GMT 47.503300 -1.188988 36,450 60 472 -1472
2021-06-24 14:34:20 GMT 47.500031 -1.197716 36,525 61 473 -1472
2021-06-24 14:34:18 GMT 47.497665 -1.204271 36,600 62 473 -1472
2021-06-24 14:34:14 GMT 47.493713 -1.215431 36,700 63 473 -1664
2021-06-24 14:34:12 GMT 47.492157 -1.220032 36,825 65 473 -1792
2021-06-24 14:34:09 GMT 47.489754 -1.227300 36,800 65 473 -1792
2021-06-24 14:34:05 GMT 47.485565 -1.240425 36,950 67 473 -1536
2021-06-24 14:34:02 GMT 47.482910 -1.249283 37,225 67 473 -1344
2021-06-24 14:33:59 GMT 47.480396 -1.257864 37,100 67 473 -1536
2021-06-24 14:33:56 GMT 47.477509 -1.267935 37,225 68 475 -960
2021-06-24 14:33:53 GMT 47.475090 -1.276949 37,225 68 475 -960
2021-06-24 14:33:49 GMT 47.472336 -1.287598 37,300 69 476 -960
2021-06-24 14:33:46 GMT 47.469589 -1.298584 37,550 73 483 -1216
2021-06-24 14:33:42 GMT 47.467037 -1.309345 37,450 71 480 -1152
2021-06-24 14:33:39 GMT 47.464245 -1.321810 37,475 72 481 -1152
2021-06-24 14:33:36 GMT 47.462662 -1.329346 37,525 73 483 -1216
2021-06-24 14:33:33 GMT 47.460331 -1.340684 37,625 74 485 -1344
2021-06-24 14:33:30 GMT 47.459290 -1.346100 37,625 74 485 -1344
2021-06-24 14:33:27 GMT 47.457138 -1.357567 37,775 76 489 -2240
2021-06-24 14:33:23 GMT 47.454094 -1.375967 37,975 76 489 -2240
2021-06-24 14:33:18 GMT 47.452744 -1.384418 38,050 76 489 -2240
2021-06-24 14:33:15 GMT 47.451206 -1.394137 38,100 76 489 -2240
2021-06-24 14:33:11 GMT 47.447479 -1.417854 38,450 76 489 -2304
2021-06-24 14:33:08 GMT 47.447479 -1.417854 38,350 76 489 -2304
2021-06-24 14:33:05 GMT 47.446014 -1.426918 38,625 76 489 -2304
2021-06-24 14:33:00 GMT 47.443176 -1.444427 38,675 76 489 -2240
2021-06-24 14:32:58 GMT 47.442444 -1.448959 38,800 76 489 -2304
2021-06-24 14:32:55 GMT 47.440659 -1.460014 38,850 76 489 -2304
2021-06-24 14:32:52 GMT 47.439011 -1.470055 39,000 76 489 -2240
2021-06-24 14:32:49 GMT 47.436813 -1.483360 39,075 76 489 -2176
2021-06-24 14:32:45 GMT 47.435257 -1.493042 39,200 76 489 -2112
2021-06-24 14:32:41 GMT 47.433006 -1.506958 39,300 76 489 -2176
2021-06-24 14:32:38 GMT 47.431686 -1.515083 39,475 76 489 -2176
2021-06-24 14:32:35 GMT 47.429886 -1.526466 39,725 76 489 -2240
2021-06-24 14:32:32 GMT 47.427567 -1.541039 39,725 76 489 -2240
2021-06-24 14:32:30 GMT 47.425781 -1.552025 39,800 76 489 -2240
2021-06-24 14:32:27 GMT 47.425781 -1.552025 39,825 76 489 -2240
2021-06-24 14:32:24 GMT 47.424580 -1.559495 39,900 76 489 -2304
2021-06-24 14:32:21 GMT 47.422905 -1.569848 40,025 76 489 -2304
2021-06-24 14:32:19 GMT 47.422028 -1.575371 40,075 76 488 -2240
2021-06-24 14:32:15 GMT 47.419922 -1.588280 40,225 76 488 -2240
2021-06-24 14:32:12 GMT 47.417770 -1.601189 40,375 76 488 -2176
2021-06-24 14:32:09 GMT 47.416481 -1.609286 40,475 76 488 -2048
2021-06-24 14:32:05 GMT 47.413879 -1.625153 40,625 76 488 -1792
2021-06-24 14:32:01 GMT 47.412323 -1.634834 40,675 76 488 -1664
2021-06-24 14:31:58 GMT 47.410477 -1.646118 40,825 76 489 -1216
2021-06-24 14:31:54 GMT 47.408707 -1.657104 41,000 76 489 -1152
2021-06-24 14:31:50 GMT 47.406097 -1.673012 40,925 76 490 -512
2021-06-24 14:31:47 GMT 47.404797 -1.681119 40,975 76 490 -448
2021-06-24 14:31:44 GMT 47.403351 -1.689835 40,950 76 490 -512
2021-06-24 14:31:39 GMT 47.398838 -1.717388 41,000 76 491 -192
2021-06-24 14:31:36 GMT 47.398838 -1.717388 41,000 76 491 -192
2021-06-24 14:31:33 GMT 47.397537 -1.725540 41,000 76 491 -192
2021-06-24 14:31:31 GMT 47.396255 -1.733368 41,000 76 491 -128
2021-06-24 14:31:29 GMT 47.395344 -1.738868 40,975 76 491 0
2021-06-24 14:31:25 GMT 47.392925 -1.753798 41,000 76 491 -64
2021-06-24 14:31:22 GMT 47.392086 -1.759010 41,000 76 491 -64
2021-06-24 14:31:19 GMT 47.389893 -1.772369 41,000 76 491 -64
2021-06-24 14:31:16 GMT 47.388317 -1.781757 41,000 76 491 0
2021-06-24 14:31:13 GMT 47.386917 -1.790565 40,975 76 491 0
2021-06-24 14:31:09 GMT 47.384995 -1.802238 41,000 76 491 0
2021-06-24 14:31:06 GMT 47.382614 -1.816589 41,000 76 491 -64
2021-06-24 14:31:03 GMT 47.381611 -1.822745 41,000 76 491 -64
2021-06-24 14:31:01 GMT 47.379227 -1.837326 41,000 76 490 -64
2021-06-24 14:30:59 GMT 47.379227 -1.837326 41,000 76 491 -64
2021-06-24 14:30:56 GMT 47.377563 -1.847393 40,975 76 490 -64
2021-06-24 14:30:53 GMT 47.376205 -1.855522 41,000 76 490 -64
2021-06-24 14:30:51 GMT 47.374863 -1.863662 41,000 76 490 -64
2021-06-24 14:30:46 GMT 47.372303 -1.879226 41,000 76 491 0
2021-06-24 14:30:43 GMT 47.368206 -1.903874 41,000 76 491 -64
2021-06-24 14:30:38 GMT 47.368206 -1.903874 41,000 76 490 -64
2021-06-24 14:30:35 GMT 47.366714 -1.912959 41,000 76 490 -64
2021-06-24 14:30:32 GMT 47.364807 -1.924324 41,000 76 490 -64
2021-06-24 14:30:28 GMT 47.362850 -1.936270 41,000 76 491 0
2021-06-24 14:30:25 GMT 47.361053 -1.946983 41,000 76 491 0
2021-06-24 14:30:22 GMT 47.359451 -1.956734 40,975 76 491 0
2021-06-24 14:30:20 GMT 47.358662 -1.961623 40,975 76 491 0
2021-06-24 14:30:16 GMT 47.354332 -1.987539 41,000 76 490 0
2021-06-24 14:30:13 GMT 47.353168 -1.994652 40,975 76 491 0
2021-06-24 14:30:10 GMT 47.353168 -1.994652 40,975 76 491 0
2021-06-24 14:30:08 GMT 47.350067 -2.013176 41,000 76 491 0
2021-06-24 14:30:05 GMT 47.350067 -2.013176 40,975 76 492 0
2021-06-24 14:30:02 GMT 47.348606 -2.021907 40,975 76 492 0
2021-06-24 14:30:00 GMT 47.346142 -2.036837 40,975 76 493 -64
2021-06-24 14:29:57 GMT 47.346142 -2.036837 40,975 76 493 -64
2021-06-24 14:29:54 GMT 47.344574 -2.046272 41,000 76 492 -64
2021-06-24 14:29:51 GMT 47.342880 -2.056641 40,975 76 492 0
2021-06-24 14:29:47 GMT 47.340912 -2.068382 40,975 76 493 -64
2021-06-24 14:29:44 GMT 47.339249 -2.078458 40,975 76 493 -64
2021-06-24 14:29:41 GMT 47.337433 -2.089515 40,975 76 493 -64
2021-06-24 14:29:38 GMT 47.335510 -2.100861 40,975 76 493 -64
2021-06-24 14:29:35 GMT 47.333771 -2.111298 40,975 76 493 -64
2021-06-24 14:29:32 GMT 47.332581 -2.118439 41,000 76 493 -64
2021-06-24 14:29:30 GMT 47.331337 -2.125925 41,000 76 493 -64
2021-06-24 14:29:27 GMT 47.326820 -2.152616 41,000 76 493 -64
2021-06-24 14:29:22 GMT 47.326820 -2.152616 40,975 76 493 -64
2021-06-24 14:29:19 GMT 47.323837 -2.170486 40,975 76 493 -64
2021-06-24 14:29:16 GMT 47.323837 -2.170486 40,975 76 493 -64
2021-06-24 14:29:12 GMT 47.321503 -2.184151 41,000 76 493 -64
2021-06-24 14:29:09 GMT 47.319992 -2.193283 41,000 76 493 -64
2021-06-24 14:29:06 GMT 47.318298 -2.203033 41,000 76 493 -64
2021-06-24 14:29:03 GMT 47.315918 -2.217316 41,000 76 493 -64
2021-06-24 14:29:00 GMT 47.314205 -2.227408 41,000 76 493 -64
2021-06-24 14:28:57 GMT 47.312531 -2.237197 40,975 76 493 0
2021-06-24 14:28:52 GMT 47.310574 -2.248887 40,975 76 493 0
2021-06-24 14:28:49 GMT 47.308899 -2.258606 40,975 76 493 0
2021-06-24 14:28:46 GMT 47.307220 -2.268677 41,000 76 493 -64
2021-06-24 14:28:42 GMT 47.304756 -2.283325 40,975 76 492 -64
2021-06-24 14:28:38 GMT 47.302425 -2.296988 40,975 76 492 0
2021-06-24 14:28:35 GMT 47.299438 -2.314819 40,975 76 492 0
2021-06-24 14:28:32 GMT 47.299438 -2.314819 41,000 76 492 -64
2021-06-24 14:28:29 GMT 47.298019 -2.323265 40,975 76 492 -64
2021-06-24 14:28:26 GMT 47.296421 -2.332623 40,975 76 492 -64
2021-06-24 14:28:22 GMT 47.293854 -2.347916 41,000 76 492 -64
2021-06-24 14:28:18 GMT 47.291885 -2.359589 41,000 76 492 0
2021-06-24 14:28:15 GMT 47.290043 -2.370230 41,000 75 491 -64
2021-06-24 14:28:12 GMT 47.288315 -2.380325 41,000 75 491 0
2021-06-24 14:28:10 GMT 47.285019 -2.399757 41,000 75 491 0
2021-06-24 14:28:06 GMT 47.285019 -2.399757 40,975 75 491 0
2021-06-24 14:28:02 GMT 47.282738 -2.412978 40,975 75 491 0
2021-06-24 14:27:59 GMT 47.280441 -2.426262 41,000 75 491 0
2021-06-24 14:27:54 GMT 47.278107 -2.439857 40,975 75 491 0
2021-06-24 14:27:51 GMT 47.276779 -2.447617 40,975 75 491 0
2021-06-24 14:27:48 GMT 47.274582 -2.460594 40,975 75 492 -64
2021-06-24 14:27:45 GMT 47.273804 -2.465126 40,975 75 492 -64
2021-06-24 14:27:43 GMT 47.272568 -2.472267 40,975 75 492 -64
2021-06-24 14:27:40 GMT 47.271191 -2.480375 40,975 76 492 -64
2021-06-24 14:27:37 GMT 47.269180 -2.492386 41,000 76 492 -64
2021-06-24 14:27:34 GMT 47.267467 -2.502418 41,000 76 492 -64
2021-06-24 14:27:31 GMT 47.266205 -2.509895 41,000 75 491 -64
2021-06-24 14:27:29 GMT 47.264648 -2.518959 41,000 75 493 -64
2021-06-24 14:27:26 GMT 47.263603 -2.525095 41,000 75 493 -64
2021-06-24 14:27:24 GMT 47.262020 -2.534180 41,000 75 492 -64
2021-06-24 14:27:21 GMT 47.259319 -2.549673 40,975 75 492 0
2021-06-24 14:27:16 GMT 47.257225 -2.561998 40,975 75 491 0
2021-06-24 14:27:13 GMT 47.255722 -2.570732 41,000 75 491 0
2021-06-24 14:27:09 GMT 47.253872 -2.581435 40,975 75 492 0
2021-06-24 14:27:06 GMT 47.251923 -2.592705 40,975 75 491 -64
2021-06-24 14:27:03 GMT 47.248753 -2.611154 41,000 75 491 -64
2021-06-24 14:27:00 GMT 47.248753 -2.611154 41,000 75 492 -64
2021-06-24 14:26:58 GMT 47.247448 -2.618972 40,975 75 492 -64
2021-06-24 14:26:53 GMT 47.244598 -2.635483 41,000 75 493 -64
2021-06-24 14:26:50 GMT 47.243134 -2.643860 41,000 75 493 -64
2021-06-24 14:26:47 GMT 47.241535 -2.653269 41,000 75 493 0
2021-06-24 14:26:44 GMT 47.239655 -2.663979 40,975 75 493 -64
2021-06-24 14:26:41 GMT 47.237812 -2.674678 40,975 75 493 -64
2021-06-24 14:26:39 GMT 47.236694 -2.681157 41,000 75 493 -64
2021-06-24 14:26:36 GMT 47.235306 -2.689247 40,975 75 493 -64
2021-06-24 14:26:32 GMT 47.233063 -2.702225 40,975 75 493 -64
2021-06-24 14:26:29 GMT 47.230591 -2.716438 41,000 75 493 0
2021-06-24 14:26:26 GMT 47.229431 -2.723271 40,975 75 494 0
2021-06-24 14:26:23 GMT 47.227619 -2.733694 40,975 75 494 0
2021-06-24 14:26:20 GMT 47.225647 -2.745003 40,975 75 494 -64
2021-06-24 14:26:17 GMT 47.224827 -2.749892 40,975 75 494 0
2021-06-24 14:26:15 GMT 47.223404 -2.757980 40,975 75 494 -64
2021-06-24 14:26:13 GMT 47.222218 -2.764822 40,975 75 494 -64
2021-06-24 14:26:10 GMT 47.220776 -2.773273 40,975 75 494 -64
2021-06-24 14:26:07 GMT 47.218781 -2.784622 40,975 75 494 -64
2021-06-24 14:26:03 GMT 47.216309 -2.798904 41,000 75 495 -64
2021-06-24 14:26:00 GMT 47.214584 -2.808979 41,000 75 495 -64
2021-06-24 14:25:56 GMT 47.212627 -2.820035 40,975 75 495 -64
2021-06-24 14:25:51 GMT 47.209602 -2.837642 41,000 75 495 -64
2021-06-24 14:25:47 GMT 47.207245 -2.850952 41,000 75 495 -64
2021-06-24 14:25:42 GMT 47.204727 -2.865234 41,000 75 495 -64
2021-06-24 14:25:39 GMT 47.203262 -2.873680 41,000 75 495 0
2021-06-24 14:25:36 GMT 47.201431 -2.884117 41,000 75 495 -64
2021-06-24 14:25:32 GMT 47.199280 -2.896408 41,000 75 495 -64
2021-06-24 14:25:29 GMT 47.197311 -2.907463 41,000 75 495 0
2021-06-24 14:25:26 GMT 47.195709 -2.916595 41,000 75 495 -64
2021-06-24 14:25:23 GMT 47.194016 -2.926346 40,975 75 494 -64
2021-06-24 14:25:20 GMT 47.192097 -2.937012 41,000 75 495 0
2021-06-24 14:25:17 GMT 47.190376 -2.946801 40,975 75 495 0
2021-06-24 14:25:15 GMT 47.189117 -2.953914 41,000 75 495 0
2021-06-24 14:25:12 GMT 47.185730 -2.973106 40,975 75 495 -64
2021-06-24 14:25:09 GMT 47.185730 -2.973106 40,975 75 494 -64
2021-06-24 14:25:06 GMT 47.184044 -2.982506 40,975 75 495 -64
2021-06-24 14:25:02 GMT 47.181904 -2.994831 40,975 75 495 -64
2021-06-24 14:24:59 GMT 47.179947 -3.005888 41,000 75 495 -64
2021-06-24 14:24:56 GMT 47.177948 -3.017258 41,000 75 495 -64
2021-06-24 14:24:51 GMT 47.172318 -3.049118 41,000 75 495 -64
2021-06-24 14:24:46 GMT 47.170029 -3.062096 41,000 75 495 0
2021-06-24 14:24:42 GMT 47.170029 -3.062096 41,000 75 495 0
2021-06-24 14:24:38 GMT 47.167969 -3.073769 41,000 75 495 -64
2021-06-24 14:24:35 GMT 47.166367 -3.082832 41,000 75 494 -64
2021-06-24 14:24:31 GMT 47.164261 -3.094505 41,000 75 494 -64
2021-06-24 14:24:28 GMT 47.162491 -3.104553 40,975 75 494 -64
2021-06-24 14:24:25 GMT 47.158813 -3.125329 40,975 75 494 -64
2021-06-24 14:24:22 GMT 47.158813 -3.125329 41,000 75 494 -64
2021-06-24 14:24:18 GMT 47.156765 -3.137019 40,975 75 494 -64
2021-06-24 14:24:15 GMT 47.154739 -3.148338 41,000 75 494 -64
2021-06-24 14:24:10 GMT 47.150341 -3.173288 41,000 75 494 -64
2021-06-24 14:24:07 GMT 47.147964 -3.186584 41,000 75 494 -64
2021-06-24 14:24:04 GMT 47.147964 -3.186584 41,000 75 494 -64
2021-06-24 14:24:01 GMT 47.144894 -3.203712 41,000 75 493 0
2021-06-24 14:23:58 GMT 47.144894 -3.203712 41,000 75 494 0
2021-06-24 14:23:55 GMT 47.142941 -3.214698 41,000 75 494 -64
2021-06-24 14:23:51 GMT 47.140915 -3.225998 41,000 75 494 -64
2021-06-24 14:23:46 GMT 47.137959 -3.242516 41,000 75 493 0
2021-06-24 14:23:44 GMT 47.137070 -3.247353 40,975 75 493 -64
2021-06-24 14:23:41 GMT 47.135239 -3.257652 40,975 75 493 0
2021-06-24 14:23:38 GMT 47.133362 -3.268021 41,000 75 493 0
2021-06-24 14:23:34 GMT 47.131115 -3.280616 40,975 75 493 -64
2021-06-24 14:23:31 GMT 47.129299 -3.290898 40,975 75 491 0
2021-06-24 14:23:27 GMT 47.127365 -3.301598 41,000 75 493 0
2021-06-24 14:23:24 GMT 47.125389 -3.312871 40,975 75 491 -64
2021-06-24 14:23:21 GMT 47.123703 -3.322197 40,975 75 491 -64
2021-06-24 14:23:18 GMT 47.121479 -3.334773 40,975 75 491 -64
2021-06-24 14:23:15 GMT 47.120361 -3.340874 40,975 75 491 -64
2021-06-24 14:23:13 GMT 47.119522 -3.345689 40,975 75 491 -64
2021-06-24 14:23:10 GMT 47.117523 -3.357010 40,975 75 491 -64
2021-06-24 14:23:07 GMT 47.115784 -3.366623 40,975 75 491 -64
2021-06-24 14:23:04 GMT 47.113426 -3.379845 41,000 75 490 0
2021-06-24 14:23:00 GMT 47.111435 -3.391068 41,000 75 491 -64
2021-06-24 14:22:57 GMT 47.109421 -3.402311 41,000 75 491 -64
2021-06-24 14:22:53 GMT 47.107773 -3.411667 41,000 75 491 -64
2021-06-24 14:22:48 GMT 47.104813 -3.428016 41,000 75 490 -64
2021-06-24 14:22:45 GMT 47.102783 -3.439270 41,000 75 490 -64
2021-06-24 14:22:43 GMT 47.101730 -3.445038 41,000 75 490 -64
2021-06-24 14:22:40 GMT 47.099991 -3.454651 41,000 75 490 -64
2021-06-24 14:22:36 GMT 47.097691 -3.467172 41,000 75 490 -64
2021-06-24 14:22:33 GMT 47.095966 -3.476750 41,000 75 490 -64
2021-06-24 14:22:30 GMT 47.094059 -3.487032 41,000 75 490 -64
2021-06-24 14:22:27 GMT 47.092392 -3.496330 41,000 75 490 0
2021-06-24 14:22:23 GMT 47.090103 -3.508794 41,000 75 490 0
2021-06-24 14:22:20 GMT 47.088333 -3.518442 40,975 75 490 0
2021-06-24 14:22:17 GMT 47.086613 -3.528020 40,975 75 490 0
2021-06-24 14:22:13 GMT 47.083817 -3.543443 41,000 75 490 -64
2021-06-24 14:22:09 GMT 47.082001 -3.553322 41,000 75 490 -64
2021-06-24 14:22:06 GMT 47.080490 -3.561699 41,000 75 489 0
2021-06-24 14:22:03 GMT 47.078751 -3.571243 40,975 74 489 0
2021-06-24 14:22:00 GMT 47.076694 -3.582458 41,000 75 490 0
2021-06-24 14:21:57 GMT 47.074402 -3.594933 41,000 75 490 -64
2021-06-24 14:21:53 GMT 47.072571 -3.605164 40,975 75 490 0
2021-06-24 14:21:50 GMT 47.069412 -3.622467 41,000 75 490 0
2021-06-24 14:21:47 GMT 47.067337 -3.633658 41,000 75 490 -64
2021-06-24 14:21:44 GMT 47.067337 -3.633658 41,000 75 490 0
2021-06-24 14:21:39 GMT 47.062916 -3.658025 40,975 75 490 -64
2021-06-24 14:21:36 GMT 47.060074 -3.673691 40,975 75 490 0
2021-06-24 14:21:32 GMT 47.060074 -3.673691 41,000 75 490 0
2021-06-24 14:21:29 GMT 47.058655 -3.681381 41,000 75 490 0
2021-06-24 14:21:26 GMT 47.056957 -3.690702 41,000 75 490 0
2021-06-24 14:21:22 GMT 47.055000 -3.701618 41,000 75 491 0
2021-06-24 14:21:19 GMT 47.052860 -3.713168 40,975 75 491 0
2021-06-24 14:21:16 GMT 47.050964 -3.723747 40,975 75 491 0
2021-06-24 14:21:11 GMT 47.048206 -3.738802 40,975 75 491 0
2021-06-24 14:21:06 GMT 47.045197 -3.755196 40,975 75 491 -64
2021-06-24 14:21:00 GMT 47.041534 -3.775040 40,975 74 492 0
2021-06-24 14:20:57 GMT 47.039360 -3.786973 41,000 74 492 -64
2021-06-24 14:20:54 GMT 47.038239 -3.793098 40,975 74 493 -64
2021-06-24 14:20:48 GMT 47.034439 -3.813629 40,975 74 493 -64
2021-06-24 14:20:45 GMT 47.033020 -3.821388 41,000 74 494 -64
2021-06-24 14:20:39 GMT 47.029491 -3.840356 41,000 74 494 -64
2021-06-24 14:20:36 GMT 47.026794 -3.854897 41,000 74 495 -64
2021-06-24 14:20:33 GMT 47.025146 -3.863892 41,000 74 495 -64
2021-06-24 14:20:28 GMT 47.022556 -3.877751 41,000 74 495 -64
2021-06-24 14:20:24 GMT 47.019882 -3.892319 41,000 74 495 -64
2021-06-24 14:20:18 GMT 47.016769 -3.909073 41,000 74 496 -64
2021-06-24 14:20:15 GMT 47.014847 -3.919441 41,000 74 495 0
2021-06-24 14:20:08 GMT 47.010963 -3.940430 40,975 74 495 0
2021-06-24 14:20:05 GMT 47.008850 -3.951714 40,975 74 495 0
2021-06-24 14:19:58 GMT 47.004585 -3.974656 41,000 74 496 -64
2021-06-24 14:19:55 GMT 47.002815 -3.984305 41,000 74 496 -64
2021-06-24 14:19:51 GMT 47.000256 -3.997897 41,000 74 496 -64
2021-06-24 14:19:49 GMT 46.999187 -4.003742 41,000 74 496 -64
2021-06-24 14:19:46 GMT 46.997974 -4.010151 40,975 74 496 -64
2021-06-24 14:19:44 GMT 46.996628 -4.017632 41,000 74 496 -64
2021-06-24 14:19:41 GMT 46.994392 -4.029588 41,000 74 496 -64
2021-06-24 14:19:39 GMT 46.993179 -4.036067 41,000 74 496 -64
2021-06-24 14:19:35 GMT 46.990665 -4.049589 40,975 74 496 0
2021-06-24 14:19:30 GMT 46.988338 -4.061913 41,000 74 496 0
2021-06-24 14:19:28 GMT 46.986523 -4.071561 40,975 74 496 64
2021-06-24 14:19:24 GMT 46.984177 -4.084167 40,975 74 496 0
2021-06-24 14:19:21 GMT 46.982567 -4.092900 40,975 74 496 0
2021-06-24 14:19:19 GMT 46.981018 -4.100922 40,975 74 496 0
2021-06-24 14:19:16 GMT 46.977680 -4.118746 41,000 74 496 -64
2021-06-24 14:19:13 GMT 46.975113 -4.132645 41,000 74 496 -64
2021-06-24 14:19:09 GMT 46.975113 -4.132645 41,000 74 496 -64
2021-06-24 14:19:06 GMT 46.973648 -4.140335 41,000 74 496 -64
2021-06-24 14:19:03 GMT 46.971725 -4.150703 41,000 74 496 -64
2021-06-24 14:18:59 GMT 46.969208 -4.163959 41,000 74 496 0
2021-06-24 14:18:57 GMT 46.967857 -4.171072 41,000 74 496 0
2021-06-24 14:18:53 GMT 46.965729 -4.182358 41,000 74 496 0
2021-06-24 14:18:47 GMT 46.961609 -4.204330 41,000 74 496 0
2021-06-24 14:18:42 GMT 46.958679 -4.219849 40,975 74 496 0
2021-06-24 14:18:39 GMT 46.956776 -4.229877 40,975 74 496 0
2021-06-24 14:18:36 GMT 46.955193 -4.238258 40,975 74 496 0
2021-06-24 14:18:31 GMT 46.952454 -4.252808 40,975 74 496 0
2021-06-24 14:18:26 GMT 46.949001 -4.271217 41,000 74 496 -64
2021-06-24 14:18:20 GMT 46.945358 -4.290298 41,000 74 496 -64
2021-06-24 14:18:17 GMT 46.943508 -4.300302 41,000 74 496 -64
2021-06-24 14:18:13 GMT 46.940903 -4.313894 41,000 74 498 -64
2021-06-24 14:18:08 GMT 46.936798 -4.335548 41,000 74 498 0
2021-06-24 14:18:06 GMT 46.936798 -4.335548 41,000 74 498 -64
2021-06-24 14:18:01 GMT 46.934006 -4.350449 40,975 74 498 0
2021-06-24 14:17:57 GMT 46.931221 -4.364953 40,975 74 498 0
2021-06-24 14:17:54 GMT 46.929199 -4.375648 41,000 74 498 0
2021-06-24 14:17:51 GMT 46.924393 -4.400917 41,000 74 498 -64
2021-06-24 14:17:46 GMT 46.924393 -4.400917 41,000 74 498 0
2021-06-24 14:17:42 GMT 46.922001 -4.413476 40,975 74 498 -64
2021-06-24 14:17:39 GMT 46.920048 -4.423828 41,000 74 498 -64
2021-06-24 14:17:36 GMT 46.918304 -4.433258 41,000 74 498 -64
2021-06-24 14:17:33 GMT 46.916428 -4.442940 41,000 74 498 -64
2021-06-24 14:17:29 GMT 46.914181 -4.454956 41,000 74 498 -64
2021-06-24 14:17:27 GMT 46.913132 -4.460449 41,000 74 498 -64
2021-06-24 14:17:24 GMT 46.908131 -4.486647 40,975 74 498 -64
2021-06-24 14:17:20 GMT 46.908131 -4.486647 40,975 74 498 -64
2021-06-24 14:17:16 GMT 46.906174 -4.497000 41,000 74 498 -64
2021-06-24 14:17:13 GMT 46.904079 -4.507986 41,000 74 498 -64
2021-06-24 14:17:09 GMT 46.901611 -4.520944 40,975 74 498 -64
2021-06-24 14:17:06 GMT 46.899811 -4.530350 40,975 74 498 -64
2021-06-24 14:16:59 GMT 46.895561 -4.552636 41,000 74 498 -64
2021-06-24 14:16:56 GMT 46.893768 -4.562004 41,000 74 498 -64
2021-06-24 14:16:52 GMT 46.887268 -4.595581 41,000 74 497 -64
2021-06-24 14:16:46 GMT 46.887268 -4.595581 41,000 74 497 0
2021-06-24 14:16:39 GMT 46.883148 -4.616867 40,975 74 497 64
2021-06-24 14:16:37 GMT 46.881828 -4.623695 41,000 74 497 0
2021-06-24 14:16:33 GMT 46.878708 -4.639822 40,975 74 497 64
2021-06-24 14:16:29 GMT 46.876987 -4.648837 40,975 74 497 0
2021-06-24 14:16:26 GMT 46.874474 -4.661724 41,000 74 497 -64
2021-06-24 14:16:15 GMT 46.868141 -4.694613 41,000 74 497 -64
2021-06-24 14:16:08 GMT 46.861763 -4.727554 41,000 74 498 -64
2021-06-24 14:16:05 GMT 46.861763 -4.727554 41,000 74 498 -64
2021-06-24 14:16:00 GMT 46.859070 -4.741471 41,000 74 498 -64
2021-06-24 14:15:56 GMT 46.856232 -4.756343 41,000 74 498 0
2021-06-24 14:15:54 GMT 46.855362 -4.760832 41,000 74 498 0
2021-06-24 14:15:49 GMT 46.851894 -4.778572 40,975 74 498 0
2021-06-24 14:15:45 GMT 46.848778 -4.794708 40,975 74 498 0
2021-06-24 14:15:35 GMT 46.843323 -4.822864 40,975 74 498 64
2021-06-24 14:15:32 GMT 46.840668 -4.836396 40,975 74 498 0
2021-06-24 14:15:28 GMT 46.838928 -4.845440 40,975 74 498 -64
2021-06-24 14:15:24 GMT 46.836273 -4.859039 40,975 74 499 -64
2021-06-24 14:15:20 GMT 46.833664 -4.872637 41,000 74 500 -64
2021-06-24 14:15:16 GMT 46.831100 -4.885567 41,000 74 500 -64
2021-06-24 14:15:14 GMT 46.829781 -4.892349 41,000 74 500 -64
2021-06-24 14:15:09 GMT 46.826618 -4.908554 41,000 74 501 -64
2021-06-24 14:15:05 GMT 46.823963 -4.922150 40,975 74 501 0
2021-06-24 14:15:01 GMT 46.821625 -4.934134 41,000 74 501 -64
2021-06-24 14:14:58 GMT 46.819839 -4.943245 41,000 74 501 -64
2021-06-24 14:14:53 GMT 46.816376 -4.961082 40,975 74 501 0
2021-06-24 14:14:48 GMT 46.813068 -4.977905 40,975 74 501 -64
2021-06-24 14:14:43 GMT 46.810139 -4.992874 41,000 74 502 -64
2021-06-24 14:14:38 GMT 46.806973 -5.009079 41,000 74 501 -64
2021-06-24 14:14:32 GMT 46.803589 -5.026312 41,000 74 501 -64
2021-06-24 14:14:26 GMT 46.799652 -5.046409 41,000 73 501 0
2021-06-24 14:14:22 GMT 46.797150 -5.059067 40,975 74 501 0
2021-06-24 14:14:12 GMT 46.790493 -5.092781 40,975 74 501 -64
2021-06-24 14:14:09 GMT 46.788212 -5.104454 41,000 74 501 -64
2021-06-24 14:13:59 GMT 46.781982 -5.135840 40,975 73 499 0
2021-06-24 14:13:56 GMT 46.779968 -5.146224 40,975 73 499 0
2021-06-24 14:13:51 GMT 46.776943 -5.161446 40,975 73 500 -64
2021-06-24 14:13:48 GMT 46.775070 -5.170809 40,975 73 500 -64
2021-06-24 14:13:42 GMT 46.768707 -5.202850 41,000 73 500 -64
2021-06-24 14:13:38 GMT 46.768707 -5.202850 41,000 73 500 -64
2021-06-24 14:13:31 GMT 46.764469 -5.224136 41,000 73 500 -64
2021-06-24 14:13:28 GMT 46.760925 -5.241952 41,000 73 499 -64
2021-06-24 14:13:22 GMT 46.757721 -5.258097 41,000 73 499 -64
2021-06-24 14:13:18 GMT 46.755798 -5.267743 40,975 73 499 -64
2021-06-24 14:13:11 GMT 46.751247 -5.290604 40,975 73 498 0
2021-06-24 14:13:07 GMT 46.749252 -5.300568 40,975 73 498 0
2021-06-24 14:13:00 GMT 46.744171 -5.325966 41,000 73 497 -64
2021-06-24 14:12:57 GMT 46.742844 -5.332723 40,975 73 497 -64
2021-06-24 14:12:52 GMT 46.739365 -5.350074 40,975 73 497 -64
2021-06-24 14:12:47 GMT 46.735981 -5.367096 41,000 73 497 0
2021-06-24 14:12:38 GMT 46.730347 -5.395386 40,975 73 497 -64
2021-06-24 14:12:27 GMT 46.723068 -5.431600 41,000 73 497 -64
2021-06-24 14:12:20 GMT 46.718445 -5.454712 41,000 73 497 -64
2021-06-24 14:12:16 GMT 46.715469 -5.469450 41,000 73 498 -64
2021-06-24 14:12:06 GMT 46.709564 -5.498992 41,000 73 497 0
2021-06-24 14:11:58 GMT 46.703300 -5.530037 41,000 73 497 0
2021-06-24 14:11:46 GMT 46.696968 -5.561348 41,000 73 496 -64
2021-06-24 14:11:37 GMT 46.691288 -5.589500 40,975 73 496 0
2021-06-24 14:11:28 GMT 46.684818 -5.621429 40,975 73 496 0
2021-06-24 14:11:19 GMT 46.679234 -5.648895 40,975 73 496 0
2021-06-24 14:11:13 GMT 46.675003 -5.669682 40,975 73 496 -64
2021-06-24 14:09:52 GMT 46.622681 -5.925650 41,000 73 493 -64
2021-06-24 14:09:48 GMT 46.620209 -5.937641 41,000 73 492 -64
2021-06-24 14:09:39 GMT 46.613937 -5.968055 41,000 73 492 -64
2021-06-24 14:09:25 GMT 46.605309 -6.010139 41,000 73 492 -64
2021-06-24 14:08:49 GMT 46.581242 -6.126114 40,975 73 490 -64
We lost coverage of the aircraft here for a total of 116 minutes
2021-06-24 12:12:37 GMT 38.717285 -25.829575 39,000 51 529 -64
2021-06-24 12:11:38 GMT 38.628754 -25.973352 39,000 51 528 -64
2021-06-24 12:11:30 GMT 38.615036 -25.995605 39,000 51 528 -64
2021-06-24 12:11:26 GMT 38.609436 -26.004639 39,000 51 528 -64
2021-06-24 12:11:17 GMT 38.597672 -26.023685 39,000 51 527 0
2021-06-24 12:11:10 GMT 38.586777 -26.041300 39,000 51 527 0
2021-06-24 12:10:58 GMT 38.568649 -26.070616 39,000 51 526 -64
2021-06-24 12:10:51 GMT 38.557800 -26.088171 38,975 51 527 -64
2021-06-24 12:10:41 GMT 38.542877 -26.112366 38,975 51 528 -64
2021-06-24 12:10:31 GMT 38.527145 -26.137756 39,000 51 528 -64
2021-06-24 12:10:20 GMT 38.511364 -26.163086 38,975 51 528 0
2021-06-24 12:10:11 GMT 38.496964 -26.186213 38,975 51 527 -64
2021-06-24 12:10:01 GMT 38.481812 -26.210573 38,975 51 527 0
2021-06-24 12:09:51 GMT 38.466858 -26.234680 38,975 51 527 -64
2021-06-24 12:09:41 GMT 38.452007 -26.258545 39,000 51 527 -64
2021-06-24 12:09:31 GMT 38.436554 -26.283325 39,000 51 526 -64
2021-06-24 12:09:21 GMT 38.421425 -26.307617 39,000 51 526 -64
2021-06-24 12:09:11 GMT 38.406418 -26.331598 39,000 51 526 -64
2021-06-24 12:09:01 GMT 38.391266 -26.355791 38,975 51 525 -64
2021-06-24 12:08:51 GMT 38.376160 -26.379986 39,000 51 524 -64
2021-06-24 12:08:40 GMT 38.360184 -26.405581 39,000 51 524 0
2021-06-24 12:08:31 GMT 38.345264 -26.429462 38,975 51 523 0
2021-06-24 12:08:21 GMT 38.330658 -26.452799 39,000 51 523 0
2021-06-24 12:08:11 GMT 38.315750 -26.476633 38,975 51 523 0
2021-06-24 12:08:01 GMT 38.300583 -26.500952 39,000 51 523 -64
2021-06-24 12:07:51 GMT 38.285202 -26.525555 38,975 51 524 0
2021-06-24 12:07:40 GMT 38.269615 -26.550314 38,975 51 525 -64
2021-06-24 12:07:31 GMT 38.255371 -26.573002 38,975 51 525 -64
2021-06-24 12:07:21 GMT 38.239746 -26.597784 38,975 51 525 -64
2021-06-24 12:07:11 GMT 38.224869 -26.621391 39,000 51 525 -64
2021-06-24 12:07:01 GMT 38.209442 -26.645994 39,000 51 525 -64
2021-06-24 12:06:51 GMT 38.194565 -26.669544 39,000 51 525 -64
2021-06-24 12:06:41 GMT 38.179539 -26.693314 39,000 51 524 0
2021-06-24 12:06:31 GMT 38.163757 -26.718212 39,000 51 523 0
2021-06-24 12:06:21 GMT 38.148834 -26.741949 39,000 51 522 -64
2021-06-24 12:06:11 GMT 38.133728 -26.765793 39,000 51 522 -64
2021-06-24 12:06:00 GMT 38.117577 -26.791355 39,000 51 521 -64
2021-06-24 12:05:53 GMT 38.106537 -26.808744 39,000 51 521 -64
2021-06-24 12:05:51 GMT 38.103706 -26.813210 39,000 51 520 0
2021-06-24 12:05:41 GMT 38.088135 -26.837730 39,000 51 520 -64
2021-06-24 12:05:31 GMT 38.073395 -26.861046 39,000 51 520 -64
2021-06-24 12:05:21 GMT 38.057899 -26.885456 39,000 51 519 0
2021-06-24 12:05:11 GMT 38.043274 -26.908440 38,975 51 519 0
2021-06-24 12:05:01 GMT 38.028214 -26.932165 39,000 51 519 -64
2021-06-24 12:04:53 GMT 38.014664 -26.953495 38,975 51 519 0
2021-06-24 12:04:51 GMT 38.013302 -26.955612 38,975 51 519 -64
2021-06-24 12:04:41 GMT 37.997818 -26.979967 39,000 51 520 -64
2021-06-24 12:04:31 GMT 37.983227 -27.002962 39,000 51 519 -64
2021-06-24 12:04:21 GMT 37.968098 -27.026667 39,000 51 520 0
2021-06-24 12:04:11 GMT 37.952866 -27.050560 38,975 51 519 0
2021-06-24 12:04:01 GMT 37.937283 -27.074970 38,975 51 519 0
2021-06-24 12:03:56 GMT 37.928856 -27.088224 38,975 51 520 -64
2021-06-24 12:03:51 GMT 37.922333 -27.098364 38,975 51 520 -64
2021-06-24 12:03:41 GMT 37.907547 -27.121563 39,000 51 520 -64
2021-06-24 12:03:31 GMT 37.891937 -27.145964 38,975 51 521 0
2021-06-24 12:03:21 GMT 37.876923 -27.169422 38,975 51 521 -64
2021-06-24 12:03:11 GMT 37.861912 -27.192835 39,000 51 521 -64
2021-06-24 12:03:01 GMT 37.846413 -27.217016 38,975 51 521 0
2021-06-24 12:02:51 GMT 37.831234 -27.240660 39,000 50 521 -64
2021-06-24 12:02:41 GMT 37.816223 -27.264034 38,975 50 521 -64
2021-06-24 12:02:31 GMT 37.801346 -27.287176 38,975 50 521 -64
2021-06-24 12:02:21 GMT 37.785427 -27.311953 38,975 50 520 -64
2021-06-24 12:02:11 GMT 37.770576 -27.335058 39,000 50 520 -64
2021-06-24 12:02:00 GMT 37.755123 -27.359062 39,000 51 519 -64
2021-06-24 12:01:51 GMT 37.740417 -27.381845 38,975 50 518 -64
2021-06-24 12:01:41 GMT 37.724861 -27.405993 38,975 50 518 0
2021-06-24 12:01:35 GMT 37.715508 -27.420561 38,975 50 518 -64
2021-06-24 12:01:31 GMT 37.709930 -27.429237 39,000 50 517 -64
2021-06-24 12:01:25 GMT 37.702377 -27.440926 39,000 50 517 -64
2021-06-24 12:01:21 GMT 37.694824 -27.452614 38,975 50 517 -64
2021-06-24 12:01:11 GMT 37.679615 -27.476210 39,000 50 516 -64
2021-06-24 12:01:00 GMT 37.663925 -27.500450 39,000 50 516 -64
2021-06-24 12:00:49 GMT 37.647491 -27.525837 38,975 50 516 -64
2021-06-24 12:00:41 GMT 37.634537 -27.545822 39,000 50 515 0
2021-06-24 12:00:31 GMT 37.619656 -27.568817 39,000 50 514 -64
2021-06-24 12:00:21 GMT 37.604294 -27.592463 39,000 50 514 0
2021-06-24 12:00:11 GMT 37.589211 -27.615627 38,975 50 513 0
We lost coverage of the aircraft here for a total of 246 minutes
2021-06-24 07:54:08 GMT 19.600000 -61.016666 37,000 68 510
2021-06-24 07:49:44 GMT 19.378056 -61.666943 37,000 52 507
2021-06-24 07:48:56 GMT 19.333332 -61.733334 37,000 50 510
2021-06-24 07:48:44 GMT 19.318056 -61.777500 37,000 44 515
2021-06-24 07:47:59 GMT 19.233334 -61.866669 37,000 46 500
2021-06-24 07:47:07 GMT 19.141111 -61.976665 37,000 43 493
2021-06-24 07:46:59 GMT 19.133333 -61.966667 37,000 47 500
2021-06-24 07:46:07 GMT 19.056944 -62.064720 37,000 42 493
2021-06-24 07:45:59 GMT 19.049999 -62.066666 37,000 45 500
We lost coverage of the aircraft here for a total of 6 minutes
2021-06-24 07:39:37 GMT 18.433941 -62.711109 37,000 44 493 0
2021-06-24 07:39:34 GMT 18.429199 -62.715996 37,000 44 493 0
2021-06-24 07:39:24 GMT 18.412857 -62.732815 36,975 44 494 0
2021-06-24 07:38:56 GMT 18.366673 -62.780521 36,975 44 494 -64
2021-06-24 07:38:24 GMT 18.313604 -62.835205 37,000 44 496 -64
2021-06-24 07:38:13 GMT 18.296677 -62.852634 37,000 44 496 -64
2021-06-24 07:37:54 GMT 18.265608 -62.884594 37,000 44 497 -64
2021-06-24 07:37:53 GMT 18.263933 -62.886292 36,975 44 497 -64
2021-06-24 07:37:43 GMT 18.246002 -62.904774 37,000 44 497 -64
2021-06-24 07:37:32 GMT 18.230043 -62.921200 36,975 44 497 -64
2021-06-24 07:37:24 GMT 18.215239 -62.936428 37,000 44 497 -64
2021-06-24 07:37:14 GMT 18.198257 -62.953915 36,975 44 497 0
2021-06-24 07:37:04 GMT 18.182280 -62.970348 37,000 44 498 -64
2021-06-24 07:36:53 GMT 18.164824 -62.988297 37,000 44 498 -64
2021-06-24 07:36:43 GMT 18.148296 -63.005219 37,000 44 497 -64
2021-06-24 07:36:32 GMT 18.129862 -63.024101 36,975 44 497 -64
2021-06-24 07:36:21 GMT 18.112080 -63.042347 37,000 44 496 0
2021-06-24 07:36:13 GMT 18.098465 -63.056370 36,975 44 496 -64
2021-06-24 07:36:06 GMT 18.086975 -63.068172 36,975 44 495 0
2021-06-24 07:36:03 GMT 18.081711 -63.073570 37,000 44 494 -64
2021-06-24 07:35:56 GMT 18.071068 -63.084476 37,000 44 494 0
2021-06-24 07:35:52 GMT 18.064682 -63.091061 37,000 44 495 0
2021-06-24 07:35:47 GMT 18.056808 -63.099110 37,000 44 494 0
2021-06-24 07:35:43 GMT 18.048935 -63.107204 37,000 44 494 0
2021-06-24 07:35:37 GMT 18.041061 -63.115250 36,975 44 494 0
2021-06-24 07:35:32 GMT 18.032913 -63.123684 37,000 44 494 0
2021-06-24 07:35:28 GMT 18.025213 -63.131561 36,975 44 494 -64
2021-06-24 07:35:22 GMT 18.013229 -63.143871 37,000 44 494 -64
2021-06-24 07:35:16 GMT 18.005402 -63.151920 37,000 44 494 -64
2021-06-24 07:35:13 GMT 18.000778 -63.156643 37,000 44 494 -64
2021-06-24 07:35:08 GMT 17.991943 -63.165749 36,975 44 495 -64
2021-06-24 07:35:03 GMT 17.984436 -63.173508 37,000 44 494 0
2021-06-24 07:34:58 GMT 17.975922 -63.182278 36,975 44 494 -64
2021-06-24 07:34:53 GMT 17.967859 -63.190468 37,000 44 494 -64
2021-06-24 07:34:42 GMT 17.950171 -63.208660 37,000 44 495 -64
2021-06-24 07:34:33 GMT 17.934761 -63.224503 37,000 44 495 0
2021-06-24 07:34:22 GMT 17.917831 -63.241833 36,975 44 495 0
2021-06-24 07:34:13 GMT 17.902176 -63.257805 36,975 44 497 0
2021-06-24 07:34:02 GMT 17.885044 -63.275364 37,000 44 497 -64
2021-06-24 07:33:53 GMT 17.869080 -63.291756 37,000 44 498 -64
2021-06-24 07:33:43 GMT 17.852875 -63.308380 36,975 44 499 -64
2021-06-24 07:33:33 GMT 17.836029 -63.325630 37,000 44 499 0
2021-06-24 07:33:23 GMT 17.819824 -63.342255 36,975 44 499 0
2021-06-24 07:33:13 GMT 17.803112 -63.359329 37,000 44 499 -64
2021-06-24 07:33:03 GMT 17.786087 -63.376801 37,000 44 499 -64
2021-06-24 07:33:00 GMT 17.780952 -63.382038 36,975 44 499 0
2021-06-24 07:32:53 GMT 17.769361 -63.393860 37,000 44 499 -64
2021-06-24 07:32:51 GMT 17.765732 -63.397587 36,975 44 499 -64
2021-06-24 07:32:43 GMT 17.753311 -63.410339 37,000 44 500 -64
2021-06-24 07:32:39 GMT 17.746674 -63.417133 37,000 44 500 -64
2021-06-24 07:32:33 GMT 17.736589 -63.427505 36,975 44 500 -64
2021-06-24 07:32:23 GMT 17.719645 -63.444820 37,000 44 500 -64
2021-06-24 07:32:21 GMT 17.715820 -63.448742 36,975 44 500 -64
2021-06-24 07:32:13 GMT 17.702866 -63.461945 37,000 44 500 -64
2021-06-24 07:32:11 GMT 17.699068 -63.465858 36,975 44 500 -64
2021-06-24 07:32:03 GMT 17.686935 -63.478184 37,000 44 500 -64
2021-06-24 07:32:00 GMT 17.681992 -63.483292 36,975 44 499 -64
2021-06-24 07:31:53 GMT 17.670364 -63.495148 37,000 44 499 0
2021-06-24 07:31:50 GMT 17.665550 -63.500046 37,000 44 499 -64
2021-06-24 07:31:43 GMT 17.653473 -63.512398 36,975 44 499 -64
2021-06-24 07:31:41 GMT 17.649490 -63.516445 37,000 44 499 64
2021-06-24 07:31:33 GMT 17.636408 -63.529816 37,000 44 499 -64
2021-06-24 07:31:31 GMT 17.633102 -63.533199 36,975 44 499 0
2021-06-24 07:31:23 GMT 17.620377 -63.546223 37,000 44 499 0
2021-06-24 07:31:21 GMT 17.616205 -63.550415 37,000 44 499 0
2021-06-24 07:31:13 GMT 17.603310 -63.563606 37,000 44 499 0
2021-06-24 07:31:10 GMT 17.599354 -63.567680 36,975 44 499 -64
2021-06-24 07:31:03 GMT 17.587111 -63.580185 36,975 44 499 -64
2021-06-24 07:31:01 GMT 17.582977 -63.584385 37,000 44 499 -64
2021-06-24 07:30:53 GMT 17.570864 -63.596764 37,000 44 499 -64
2021-06-24 07:30:51 GMT 17.567047 -63.600624 37,000 44 499 -64
2021-06-24 07:30:43 GMT 17.553965 -63.613979 37,000 44 499 -64
2021-06-24 07:30:41 GMT 17.549961 -63.618050 37,000 44 499 -64
2021-06-24 07:30:33 GMT 17.537201 -63.631031 37,000 44 499 0
2021-06-24 07:30:28 GMT 17.529556 -63.638786 36,975 44 499 0
2021-06-24 07:30:22 GMT 17.520218 -63.648281 36,975 44 500 0
2021-06-24 07:30:19 GMT 17.515915 -63.652664 36,975 44 501 -64
2021-06-24 07:30:13 GMT 17.503780 -63.664986 36,975 44 500 -64
2021-06-24 07:30:07 GMT 17.495956 -63.672951 36,975 44 500 -64
2021-06-24 07:30:02 GMT 17.486664 -63.682446 37,000 44 501 -64
2021-06-24 07:30:00 GMT 17.483158 -63.685978 37,000 44 501 -64
2021-06-24 07:29:52 GMT 17.469891 -63.699566 37,000 44 501 0
2021-06-24 07:29:49 GMT 17.466385 -63.703114 37,000 44 501 -64
2021-06-24 07:29:43 GMT 17.453751 -63.716030 37,000 44 501 -64
2021-06-24 07:29:40 GMT 17.450134 -63.719738 37,000 44 501 -64
2021-06-24 07:29:33 GMT 17.437180 -63.732941 37,000 44 500 -64
2021-06-24 07:29:30 GMT 17.433674 -63.736496 37,000 44 500 -64
2021-06-24 07:29:23 GMT 17.420883 -63.749565 36,975 44 500 -64
2021-06-24 07:29:19 GMT 17.416534 -63.753952 37,000 44 500 -64
2021-06-24 07:29:13 GMT 17.404266 -63.766479 37,000 44 500 -64
2021-06-24 07:29:10 GMT 17.400284 -63.770527 37,000 44 500 -64
2021-06-24 07:29:03 GMT 17.386963 -63.784019 37,000 44 499 0
2021-06-24 07:28:59 GMT 17.382792 -63.788239 36,975 44 500 0
2021-06-24 07:28:52 GMT 17.370392 -63.800934 37,000 44 500 0
2021-06-24 07:28:50 GMT 17.366730 -63.804642 36,975 44 500 -64
2021-06-24 07:28:43 GMT 17.354256 -63.817276 37,000 44 499 -64
2021-06-24 07:28:40 GMT 17.350800 -63.820831 36,975 44 499 0
2021-06-24 07:28:32 GMT 17.337479 -63.834324 37,000 44 499 -64
2021-06-24 07:28:29 GMT 17.333176 -63.838711 37,000 44 499 -64
2021-06-24 07:28:22 GMT 17.320366 -63.851704 37,000 44 500 -64
2021-06-24 07:28:20 GMT 17.316879 -63.855286 37,000 44 500 -64
2021-06-24 07:28:12 GMT 17.303745 -63.868626 36,975 44 500 -64
2021-06-24 07:28:05 GMT 17.293133 -63.879417 36,975 44 500 -64
2021-06-24 07:28:01 GMT 17.286987 -63.885693 36,975 44 500 -64
2021-06-24 07:27:59 GMT 17.281820 -63.890942 37,000 44 500 -64
2021-06-24 07:27:52 GMT 17.271011 -63.901882 37,000 44 501 -64
2021-06-24 07:27:44 GMT 17.258377 -63.914700 37,000 44 500 -64
2021-06-24 07:27:42 GMT 17.253889 -63.919243 37,000 44 500 -64
2021-06-24 07:27:35 GMT 17.243042 -63.930214 37,000 44 500 64
2021-06-24 07:27:32 GMT 17.237366 -63.935947 36,975 44 500 64
2021-06-24 07:27:29 GMT 17.233219 -63.940136 36,975 44 500 64
2021-06-24 07:27:22 GMT 17.220556 -63.952984 36,975 44 500 64
2021-06-24 07:27:20 GMT 17.216721 -63.956860 36,975 44 500 0
2021-06-24 07:27:12 GMT 17.203766 -63.970016 36,975 44 500 0
2021-06-24 07:27:02 GMT 17.187149 -63.986931 36,975 44 501 -64
2021-06-24 07:26:52 GMT 17.170326 -64.003990 37,000 44 501 -64
2021-06-24 07:26:42 GMT 17.153824 -64.020706 36,975 44 502 0
2021-06-24 07:26:32 GMT 17.137321 -64.037445 37,000 44 502 -64
2021-06-24 07:26:22 GMT 17.119959 -64.055054 37,000 44 502 0
2021-06-24 07:26:12 GMT 17.103571 -64.071579 36,975 44 502 0
2021-06-24 07:26:02 GMT 17.086533 -64.088844 36,975 44 502 0
2021-06-24 07:25:52 GMT 17.053156 -64.122635 37,000 44 502 -64
2021-06-24 07:25:42 GMT 17.053156 -64.122635 37,000 44 502 -64
2021-06-24 07:25:31 GMT 17.035263 -64.140739 37,000 44 503 0
2021-06-24 07:25:22 GMT 17.018875 -64.157265 36,975 44 503 -64
2021-06-24 07:25:12 GMT 17.002808 -64.173508 37,000 44 502 -64
2021-06-24 07:25:02 GMT 16.985733 -64.190758 37,000 44 502 -64
2021-06-24 07:24:52 GMT 16.969175 -64.207436 37,000 44 502 0
2021-06-24 07:24:42 GMT 16.952463 -64.224312 36,975 44 502 0
2021-06-24 07:24:32 GMT 16.935928 -64.241013 36,975 44 502 64
2021-06-24 07:24:22 GMT 16.918579 -64.258507 36,975 44 501 -64
2021-06-24 07:24:11 GMT 16.902372 -64.274872 37,000 44 502 -64
2021-06-24 07:24:05 GMT 16.891666 -64.285667 37,000 44 502 -64
2021-06-24 07:24:01 GMT 16.885803 -64.291557 37,000 44 502 -64
2021-06-24 07:23:55 GMT 16.874817 -64.302689 37,000 44 502 -64
2021-06-24 07:23:51 GMT 16.868296 -64.309258 37,000 44 502 -64
2021-06-24 07:23:44 GMT 16.857101 -64.320564 37,000 44 502 0
2021-06-24 07:23:41 GMT 16.852112 -64.325623 37,000 44 501 0
2021-06-24 07:23:34 GMT 16.840225 -64.337555 36,975 44 501 0
2021-06-24 07:23:31 GMT 16.835403 -64.342445 36,975 44 501 0
2021-06-24 07:23:25 GMT 16.824537 -64.353348 36,975 44 501 -64
2021-06-24 07:23:20 GMT 16.817835 -64.360069 37,000 44 501 -64
2021-06-24 07:23:15 GMT 16.807663 -64.370338 37,000 44 501 -64
2021-06-24 07:23:11 GMT 16.801773 -64.376205 37,000 44 502 -64
2021-06-24 07:23:05 GMT 16.790415 -64.387680 36,975 44 502 0
2021-06-24 07:23:01 GMT 16.784735 -64.393372 37,000 44 502 0
2021-06-24 07:22:55 GMT 16.774200 -64.403976 36,975 44 502 64
2021-06-24 07:22:51 GMT 16.768158 -64.410049 36,975 44 502 0
2021-06-24 07:22:45 GMT 16.757595 -64.420692 36,975 44 502 0
2021-06-24 07:22:41 GMT 16.751265 -64.427063 36,975 44 502 -64
2021-06-24 07:22:34 GMT 16.739731 -64.438721 37,000 44 502 -64
2021-06-24 07:22:31 GMT 16.734695 -64.443779 37,000 44 502 -64
2021-06-24 07:22:25 GMT 16.723799 -64.454727 37,000 44 502 -64
2021-06-24 07:22:21 GMT 16.718119 -64.460464 37,000 44 502 -64
2021-06-24 07:22:11 GMT 16.700867 -64.477844 37,000 44 502 -64
2021-06-24 07:22:01 GMT 16.684601 -64.494164 37,000 44 502 -64
2021-06-24 07:21:51 GMT 16.667517 -64.511330 37,000 44 502 0
2021-06-24 07:21:41 GMT 16.650805 -64.528152 36,975 44 502 0
2021-06-24 07:21:30 GMT 16.633068 -64.546005 37,000 44 502 -64
2021-06-24 07:21:20 GMT 16.616728 -64.562485 37,000 44 501 -64
2021-06-24 07:21:11 GMT 16.600342 -64.578964 36,975 44 501 0
2021-06-24 07:21:07 GMT 16.594011 -64.585335 36,975 44 501 -64
2021-06-24 07:21:01 GMT 16.583675 -64.595734 37,000 44 501 -64
2021-06-24 07:20:57 GMT 16.577454 -64.601967 37,000 44 501 -64
2021-06-24 07:20:51 GMT 16.567244 -64.612167 37,000 43 501 -64
2021-06-24 07:20:47 GMT 16.560587 -64.618881 37,000 43 501 0
2021-06-24 07:20:41 GMT 16.550674 -64.628761 37,000 43 501 0
2021-06-24 07:20:37 GMT 16.543503 -64.635956 37,000 43 501 0
2021-06-24 07:20:31 GMT 16.533400 -64.646004 36,975 44 502 0
2021-06-24 07:20:26 GMT 16.525719 -64.653755 36,975 43 502 -64
2021-06-24 07:20:21 GMT 16.516642 -64.662781 36,975 43 502 -64
2021-06-24 07:20:16 GMT 16.509109 -64.670349 37,000 43 502 -64
2021-06-24 07:20:11 GMT 16.499882 -64.679604 37,000 44 503 -64
2021-06-24 07:20:07 GMT 16.493637 -64.685860 37,000 44 503 -64
2021-06-24 07:20:00 GMT 16.482704 -64.696770 37,000 44 504 0
2021-06-24 07:19:56 GMT 16.476002 -64.703537 37,000 44 504 0
2021-06-24 07:19:51 GMT 16.466597 -64.712952 36,975 44 504 -64
2021-06-24 07:19:47 GMT 16.459520 -64.720070 36,975 44 504 0
2021-06-24 07:19:41 GMT 16.448721 -64.730858 37,000 44 504 -64
2021-06-24 07:19:37 GMT 16.442825 -64.736748 37,000 44 504 -64
2021-06-24 07:19:31 GMT 16.432022 -64.747589 37,000 44 505 0
2021-06-24 07:19:26 GMT 16.424286 -64.755348 37,000 44 504 0
2021-06-24 07:19:20 GMT 16.413849 -64.765800 37,000 44 506 -64
2021-06-24 07:19:16 GMT 16.407942 -64.771713 36,975 44 506 -64
2021-06-24 07:19:11 GMT 16.398445 -64.781181 36,975 43 505 0
2021-06-24 07:19:07 GMT 16.391876 -64.787773 36,975 43 505 -64
2021-06-24 07:19:01 GMT 16.380896 -64.798737 36,975 44 506 -64
2021-06-24 07:18:57 GMT 16.374470 -64.805161 37,000 44 506 -64
2021-06-24 07:18:50 GMT 16.363670 -64.816002 37,000 44 506 -64
2021-06-24 07:18:41 GMT 16.347610 -64.832108 37,000 44 506 -64
2021-06-24 07:18:36 GMT 16.340195 -64.839577 37,000 44 506 -64
2021-06-24 07:18:31 GMT 16.330198 -64.849548 36,975 43 507 0
2021-06-24 07:18:27 GMT 16.323944 -64.855812 37,000 43 507 0
2021-06-24 07:18:21 GMT 16.313627 -64.866127 37,000 43 507 -64
2021-06-24 07:18:17 GMT 16.307201 -64.872551 37,000 44 506 0
2021-06-24 07:18:11 GMT 16.296076 -64.883682 37,000 44 506 0
2021-06-24 07:18:06 GMT 16.289652 -64.890160 36,975 44 506 -64
2021-06-24 07:18:00 GMT 16.279999 -64.899803 36,975 44 506 0
2021-06-24 07:17:56 GMT 16.271896 -64.907898 37,000 44 506 -64
2021-06-24 07:17:50 GMT 16.262741 -64.917053 37,000 43 507 -64
2021-06-24 07:17:47 GMT 16.255966 -64.923805 37,000 43 507 -64
2021-06-24 07:17:37 GMT 16.238865 -64.940826 37,000 43 507 -64
2021-06-24 07:17:27 GMT 16.222292 -64.957397 37,000 43 507 0
2021-06-24 07:17:17 GMT 16.205021 -64.974617 36,975 43 507 0
2021-06-24 07:17:10 GMT 16.194872 -64.984772 37,000 43 507 -64
2021-06-24 07:17:06 GMT 16.187256 -64.992371 37,000 43 506 -64
2021-06-24 07:17:00 GMT 16.177780 -65.001816 37,000 43 507 -64
2021-06-24 07:16:57 GMT 16.170959 -65.008560 37,000 43 507 -64
2021-06-24 07:16:49 GMT 16.160477 -65.019020 37,000 43 507 0
2021-06-24 07:16:40 GMT 16.144363 -65.035042 37,000 43 507 0
2021-06-24 07:16:30 GMT 16.127419 -65.051964 36,975 43 507 -64
2021-06-24 07:16:20 GMT 16.109774 -65.069572 36,975 43 508 -64
2021-06-24 07:16:12 GMT 16.096878 -65.082466 37,000 43 508 -64
2021-06-24 07:16:10 GMT 16.092457 -65.086830 36,975 43 507 -64
2021-06-24 07:16:02 GMT 16.079727 -65.099533 37,000 43 507 0
2021-06-24 07:16:00 GMT 16.075974 -65.103249 37,000 43 507 -64
2021-06-24 07:15:50 GMT 16.058474 -65.120674 37,000 43 507 -64
2021-06-24 07:15:42 GMT 16.045395 -65.133698 37,000 43 509 -64
2021-06-24 07:15:40 GMT 16.041807 -65.137253 36,975 43 509 -64
2021-06-24 07:15:30 GMT 16.025143 -65.153778 37,000 43 508 -64
2021-06-24 07:15:20 GMT 16.007452 -65.171387 37,000 43 509 -64
2021-06-24 07:15:10 GMT 15.990601 -65.188148 37,000 43 508 0
2021-06-24 07:15:00 GMT 15.973251 -65.205353 36,975 43 508 0
2021-06-24 07:14:50 GMT 15.956909 -65.221588 36,975 43 509 0
2021-06-24 07:14:39 GMT 15.938828 -65.239517 36,975 43 509 0
2021-06-24 07:14:30 GMT 15.922681 -65.255600 37,000 43 509 -64
2021-06-24 07:14:20 GMT 15.905136 -65.273048 37,000 43 509 -64
2021-06-24 07:14:10 GMT 15.888794 -65.289291 37,000 43 509 -64
2021-06-24 07:13:52 GMT 15.858253 -65.319557 37,000 43 508 0
2021-06-24 07:13:45 GMT 15.846009 -65.331718 37,000 43 508 0
2021-06-24 07:13:39 GMT 15.836466 -65.341187 36,975 43 508 64
2021-06-24 07:13:36 GMT 15.829669 -65.347908 36,975 43 508 0
2021-06-24 07:13:29 GMT 15.818253 -65.359253 36,975 43 508 0
2021-06-24 07:13:25 GMT 15.812439 -65.364990 36,975 43 509 -64
2021-06-24 07:13:12 GMT 15.789821 -65.387489 36,975 43 509 -64
2021-06-24 07:13:09 GMT 15.784882 -65.392410 36,975 43 509 -64
2021-06-24 07:12:30 GMT 15.717773 -65.458900 37,000 43 508 0
2021-06-24 07:12:29 GMT 15.715896 -65.460762 36,975 43 507 0
2021-06-24 07:12:19 GMT 15.698253 -65.478317 37,000 44 507 0
2021-06-24 07:12:08 GMT 15.681308 -65.495193 36,975 43 507 0
2021-06-24 07:11:59 GMT 15.664490 -65.511864 36,975 43 507 -64
2021-06-24 07:11:49 GMT 15.647324 -65.528938 37,000 43 509 -64
2021-06-24 07:11:47 GMT 15.644252 -65.531975 37,000 43 509 -64
2021-06-24 07:11:38 GMT 15.629471 -65.546654 37,000 43 509 -64
2021-06-24 07:11:28 GMT 15.612076 -65.563904 37,000 43 509 0
2021-06-24 07:11:18 GMT 15.594860 -65.580971 37,000 43 509 0
2021-06-24 07:11:07 GMT 15.576146 -65.599510 37,000 43 509 -64
2021-06-24 07:11:04 GMT 15.571724 -65.603928 36,975 43 508 -64
2021-06-24 07:10:59 GMT 15.562683 -65.612854 37,000 43 508 -64
2021-06-24 07:10:45 GMT 15.539370 -65.636002 37,000 43 508 0
2021-06-24 07:10:43 GMT 15.534621 -65.640709 36,975 43 508 0
2021-06-24 07:10:38 GMT 15.526978 -65.648323 36,975 43 508 0
2021-06-24 07:10:28 GMT 15.510181 -65.665039 37,000 43 508 -64
2021-06-24 07:10:23 GMT 15.501526 -65.673668 37,000 43 508 -64
2021-06-24 07:10:18 GMT 15.492371 -65.682777 37,000 43 507 -64
2021-06-24 07:10:08 GMT 15.475342 -65.699593 36,975 43 507 -64
2021-06-24 07:09:59 GMT 15.460557 -65.714233 37,000 43 507 0
2021-06-24 07:09:57 GMT 15.458038 -65.716743 37,000 43 507 0
2021-06-24 07:09:49 GMT 15.443286 -65.731400 37,000 43 507 -64
2021-06-24 07:09:47 GMT 15.441376 -65.733276 36,975 43 507 0
2021-06-24 07:09:39 GMT 15.426453 -65.748070 37,000 43 507 0
2021-06-24 07:09:28 GMT 15.408783 -65.765511 37,000 43 507 0
2021-06-24 07:09:18 GMT 15.391985 -65.782158 36,975 43 507 -64
2021-06-24 07:09:05 GMT 15.371429 -65.802467 37,000 43 507 -64
2021-06-24 07:08:57 GMT 15.357676 -65.816048 37,000 43 507 -64
2021-06-24 07:08:47 GMT 15.340530 -65.833015 37,000 43 507 0
2021-06-24 07:08:37 GMT 15.323367 -65.849945 37,000 43 507 -64
2021-06-24 07:08:28 GMT 15.307121 -65.866081 37,000 43 507 -64
2021-06-24 07:08:06 GMT 15.270081 -65.902931 37,000 44 507 -64
2021-06-24 07:07:55 GMT 15.251677 -65.921356 36,975 44 507 -64
2021-06-24 07:07:47 GMT 15.238177 -65.934891 36,975 44 507 -64
2021-06-24 07:07:38 GMT 15.221278 -65.951813 37,000 44 507 -64
2021-06-24 07:06:58 GMT 15.150000 -66.016670 37,000 42 510
2021-06-24 07:05:58 GMT 15.050000 -66.116669 37,000 42 500
2021-06-24 07:04:58 GMT 14.950000 -66.216667 37,000 43 500
2021-06-24 07:03:58 GMT 14.833333 -66.316666 37,000 44 500
2021-06-24 07:02:58 GMT 14.733333 -66.416664 37,000 44 500
2021-06-24 07:01:58 GMT 14.650000 -66.516670 37,000 42 500
2021-06-24 07:00:58 GMT 14.533333 -66.616669 37,000 44 500
We lost coverage of the aircraft here for a total of 7 minutes
2021-06-24 06:54:01 GMT 13.847429 -67.313377 37,000 43 503 -64
2021-06-24 06:53:59 GMT 13.845054 -67.315689 37,000 43 503 -64
2021-06-24 06:53:49 GMT 13.828854 -67.331543 37,000 43 502 0
2021-06-24 06:53:22 GMT 13.783127 -67.376213 37,000 43 502 -64
2021-06-24 06:53:17 GMT 13.775505 -67.383629 37,000 43 502 -64
2021-06-24 06:53:02 GMT 13.748703 -67.409790 37,000 43 501 -64
2021-06-24 06:52:58 GMT 13.741802 -67.416496 37,000 43 501 0
2021-06-24 06:52:47 GMT 13.723434 -67.434418 36,975 43 502 -64
2021-06-24 06:52:25 GMT 13.686963 -67.470222 36,975 44 501 -64
2021-06-24 06:52:18 GMT 13.674627 -67.482506 37,000 44 501 -64
2021-06-24 06:52:08 GMT 13.658473 -67.498940 37,000 45 501 0
2021-06-24 06:51:58 GMT 13.641714 -67.516144 36,975 45 501 -64
2021-06-24 06:51:48 GMT 13.625290 -67.533287 37,000 45 501 -64
2021-06-24 06:51:38 GMT 13.609360 -67.549957 37,000 45 500 -64
2021-06-24 06:51:28 GMT 13.593063 -67.566910 37,000 45 500 0
2021-06-24 06:51:18 GMT 13.577133 -67.583534 37,000 45 500 0
2021-06-24 06:51:08 GMT 13.560388 -67.600998 36,975 45 500 0
2021-06-24 06:50:58 GMT 13.544141 -67.618004 36,975 45 500 0
2021-06-24 06:50:48 GMT 13.527894 -67.634972 37,000 45 500 -64
2021-06-24 06:50:38 GMT 13.511444 -67.652107 36,975 45 501 -64
2021-06-24 06:50:27 GMT 13.495028 -67.669228 36,975 45 501 0
2021-06-24 06:50:18 GMT 13.479061 -67.685852 36,975 45 501 0
2021-06-24 06:50:08 GMT 13.462601 -67.703011 37,000 45 501 -64
2021-06-24 06:49:58 GMT 13.446195 -67.720161 36,975 45 501 -64
2021-06-24 06:49:48 GMT 13.429902 -67.737122 37,000 45 501 -64
2021-06-24 06:49:38 GMT 13.413608 -67.754082 37,000 45 501 -64
2021-06-24 06:49:28 GMT 13.397827 -67.770493 37,000 45 499 0
2021-06-24 06:49:18 GMT 13.381577 -67.787445 36,975 45 499 64
2021-06-24 06:49:08 GMT 13.365005 -67.804726 36,975 45 499 0
2021-06-24 06:48:58 GMT 13.348755 -67.821632 37,000 45 499 -64
2021-06-24 06:48:48 GMT 13.332328 -67.838745 37,000 45 499 -64
2021-06-24 06:48:38 GMT 13.316081 -67.855659 37,000 45 499 -64
2021-06-24 06:48:28 GMT 13.299637 -67.872681 36,975 45 499 0
2021-06-24 06:48:17 GMT 13.283076 -67.889626 37,000 44 499 0
2021-06-24 06:48:08 GMT 13.267341 -67.905678 37,000 45 499 -64
2021-06-24 06:47:58 GMT 13.250473 -67.922928 37,000 45 499 0
2021-06-24 06:47:48 GMT 13.234056 -67.939980 37,000 45 499 0
2021-06-24 06:47:38 GMT 13.218338 -67.956360 36,975 45 499 0
2021-06-24 06:47:28 GMT 13.201935 -67.973427 36,975 45 499 -64
2021-06-24 06:47:18 GMT 13.185883 -67.990173 37,000 45 499 -64
2021-06-24 06:47:08 GMT 13.169488 -68.007248 37,000 45 499 -64
2021-06-24 06:46:58 GMT 13.153061 -68.024315 37,000 45 499 0
2021-06-24 06:46:48 GMT 13.136810 -68.041222 37,000 45 499 0
2021-06-24 06:46:38 GMT 13.121074 -68.057602 37,000 45 499 -64
2021-06-24 06:46:28 GMT 13.104827 -68.074471 37,000 45 499 -64
2021-06-24 06:46:18 GMT 13.088104 -68.091797 37,000 45 499 -64
2021-06-24 06:46:08 GMT 13.071899 -68.108650 37,000 45 499 -64
2021-06-24 06:45:58 GMT 13.055482 -68.125641 36,975 45 498 0
2021-06-24 06:45:48 GMT 13.039764 -68.141991 37,000 45 497 0
2021-06-24 06:45:38 GMT 13.022919 -68.159462 37,000 45 497 0
2021-06-24 06:45:28 GMT 13.007401 -68.175613 37,000 45 497 -64
2021-06-24 06:45:18 GMT 12.990921 -68.192757 37,000 45 497 -64
2021-06-24 06:45:08 GMT 12.974716 -68.209564 36,975 45 497 0
2021-06-24 06:44:58 GMT 12.958700 -68.226204 36,975 45 497 0
2021-06-24 06:44:48 GMT 12.942032 -68.243523 36,975 45 498 -64
2021-06-24 06:44:38 GMT 12.925781 -68.260376 37,000 45 499 -64
2021-06-24 06:44:28 GMT 12.910053 -68.276703 36,975 45 499 -64
2021-06-24 06:44:18 GMT 12.893201 -68.294197 37,000 45 498 0
2021-06-24 06:44:08 GMT 12.877327 -68.310722 37,000 45 497 0
2021-06-24 06:43:57 GMT 12.860475 -68.328171 36,975 45 497 0
2021-06-24 06:43:47 GMT 12.844274 -68.344933 36,975 45 497 -64
2021-06-24 06:43:38 GMT 12.828598 -68.361198 37,000 45 497 -64

Making use of Plane Finder data

You are free to use the raw flight data, aircraft information and images provided in this report for your own purposes provided the data is correctly attributed to Plane Finder. We ask that you please credit Plane Finder and link to planefinder.net in close proximity to the content.

Optionally one of the following logos (no smaller then 150x24px) can be used and must link to planefinder.net

Embedding the Plane Finder map

You are welcome to embed the Plane Finder playback map on your website to offer visitors a more interactive experience. We suggest using the following HTML code:

<iframe src="//planefinder.net/data/report/AF429-F-HRBJ-7700-squawk-2021-06-24/map" width="800" height="600" seamless="seamless"></iframe>

Where our data comes from

Plane Finder has a global network of data feeds and antenna radars that receive data broadcast directly from aircraft. The primary technologies used are ADS-B and MLAT. We also show feeds from the FAA and a FLARM glider feed.

Click here to find out more about the Plane Finder network.

How we collect our data